<?xml version="1.0" encoding="UTF-8" standalone="no" ?>
<gpx xmlns="http://www.topografix.com/GPX/1/1" xmlns:xsi="http://www.w3.org/2001/XMLSchema-instance" xsi:schemaLocation="http://www.topografix.com/GPX/1/1 http://www.topografix.com/GPX/1/1/gpx.xsd" version="1.1" creator="VisuGPX - https://www.visugpx.com">
  <metadata>
    <name>Le mas d'Azil </name>
    <desc><![CDATA[Circuit 1: La Croix            2h00-  6 km- 235 m dénivelé . A faire le matin . Panorama sur Le Mas d' Azil , le lac de Filheit et sur les Pyrénées.
Circuit 2: Les Dolmens    4h00-13 km- 380  m de dénivelé . A ne pas faire quand il fait chaud . Trop long avec peu d' intérêt . Pas de visuel quand les arbres sont feuillus. 
Circuit 3: 3 circuits en 1 : Corniches Sud et Nord et Chemin de pierres 
                                        3h00-  6 km- 370 m de dénivelé . 
Ne connaissant pas , j'ai fait les 2 corniches séparément en revenant à la route, mais on peut combiner les deux sans y revenir .
Très beau parcours à l'ombre pour la Corniche Nord . Cabanes en pierres sèches sur les 3 parcours avec panorama sur les Pyrénées . Constructions artistiques sur le Chemin de pierres .

]]></desc>
  </metadata>
  <trk>
    <name><![CDATA[Le Mas d' Azil dolmens]]></name>
    <trkseg>
      <trkpt lat="43.08021" lon="1.35087">
        <ele>427.92</ele>
        <time>2017-03-30T11:28:42Z</time>
      </trkpt>
      <trkpt lat="43.0802" lon="1.35093">
        <ele>427.92</ele>
        <time>2017-03-30T11:28:59Z</time>
      </trkpt>
      <trkpt lat="43.08026" lon="1.35099">
        <ele>428.4</ele>
        <time>2017-03-30T11:31:05Z</time>
      </trkpt>
      <trkpt lat="43.08039" lon="1.35086">
        <ele>428.4</ele>
        <time>2017-03-30T11:31:21Z</time>
      </trkpt>
      <trkpt lat="43.08052" lon="1.35077">
        <ele>427.92</ele>
        <time>2017-03-30T11:31:37Z</time>
      </trkpt>
      <trkpt lat="43.0807" lon="1.35069">
        <ele>427.92</ele>
        <time>2017-03-30T11:31:54Z</time>
      </trkpt>
      <trkpt lat="43.08073" lon="1.35069">
        <ele>427.92</ele>
        <time>2017-03-30T11:31:56Z</time>
      </trkpt>
      <trkpt lat="43.08083" lon="1.35068">
        <ele>428.4</ele>
        <time>2017-03-30T11:32:04Z</time>
      </trkpt>
      <trkpt lat="43.08105" lon="1.35069">
        <ele>428.89</ele>
        <time>2017-03-30T11:32:21Z</time>
      </trkpt>
      <trkpt lat="43.08122" lon="1.35072">
        <ele>429.85</ele>
        <time>2017-03-30T11:32:35Z</time>
      </trkpt>
      <trkpt lat="43.08143" lon="1.35076">
        <ele>431.77</ele>
        <time>2017-03-30T11:32:54Z</time>
      </trkpt>
      <trkpt lat="43.08148" lon="1.35079">
        <ele>431.77</ele>
        <time>2017-03-30T11:32:58Z</time>
      </trkpt>
      <trkpt lat="43.08164" lon="1.35081">
        <ele>431.29</ele>
        <time>2017-03-30T11:33:11Z</time>
      </trkpt>
      <trkpt lat="43.0817" lon="1.35082">
        <ele>431.77</ele>
        <time>2017-03-30T11:33:20Z</time>
      </trkpt>
      <trkpt lat="43.08184" lon="1.35083">
        <ele>431.77</ele>
        <time>2017-03-30T11:33:34Z</time>
      </trkpt>
      <trkpt lat="43.08199" lon="1.35082">
        <ele>432.25</ele>
        <time>2017-03-30T11:33:48Z</time>
      </trkpt>
      <trkpt lat="43.08219" lon="1.35084">
        <ele>432.25</ele>
        <time>2017-03-30T11:34:05Z</time>
      </trkpt>
      <trkpt lat="43.08241" lon="1.35086">
        <ele>432.73</ele>
        <time>2017-03-30T11:34:24Z</time>
      </trkpt>
      <trkpt lat="43.08254" lon="1.35085">
        <ele>432.73</ele>
        <time>2017-03-30T11:34:37Z</time>
      </trkpt>
      <trkpt lat="43.08261" lon="1.35086">
        <ele>432.73</ele>
        <time>2017-03-30T11:34:44Z</time>
      </trkpt>
      <trkpt lat="43.08284" lon="1.35092">
        <ele>433.21</ele>
        <time>2017-03-30T11:35:01Z</time>
      </trkpt>
      <trkpt lat="43.08292" lon="1.35095">
        <ele>432.73</ele>
        <time>2017-03-30T11:35:09Z</time>
      </trkpt>
      <trkpt lat="43.08293" lon="1.35095">
        <ele>434.17</ele>
        <time>2017-03-30T11:35:10Z</time>
      </trkpt>
      <trkpt lat="43.08303" lon="1.35098">
        <ele>434.17</ele>
        <time>2017-03-30T11:35:19Z</time>
      </trkpt>
      <trkpt lat="43.0832" lon="1.35105">
        <ele>434.65</ele>
        <time>2017-03-30T11:35:36Z</time>
      </trkpt>
      <trkpt lat="43.08341" lon="1.35108">
        <ele>434.17</ele>
        <time>2017-03-30T11:35:52Z</time>
      </trkpt>
      <trkpt lat="43.08356" lon="1.35112">
        <ele>434.65</ele>
        <time>2017-03-30T11:36:06Z</time>
      </trkpt>
      <trkpt lat="43.08379" lon="1.35117">
        <ele>435.13</ele>
        <time>2017-03-30T11:36:24Z</time>
      </trkpt>
      <trkpt lat="43.08398" lon="1.35117">
        <ele>434.65</ele>
        <time>2017-03-30T11:36:43Z</time>
      </trkpt>
      <trkpt lat="43.08418" lon="1.35118">
        <ele>434.65</ele>
        <time>2017-03-30T11:36:59Z</time>
      </trkpt>
      <trkpt lat="43.08439" lon="1.35114">
        <ele>435.13</ele>
        <time>2017-03-30T11:37:16Z</time>
      </trkpt>
      <trkpt lat="43.08459" lon="1.35112">
        <ele>435.13</ele>
        <time>2017-03-30T11:37:33Z</time>
      </trkpt>
      <trkpt lat="43.08477" lon="1.35111">
        <ele>435.61</ele>
        <time>2017-03-30T11:37:50Z</time>
      </trkpt>
      <trkpt lat="43.08496" lon="1.35113">
        <ele>435.61</ele>
        <time>2017-03-30T11:38:06Z</time>
      </trkpt>
      <trkpt lat="43.08519" lon="1.35119">
        <ele>435.13</ele>
        <time>2017-03-30T11:38:24Z</time>
      </trkpt>
      <trkpt lat="43.08544" lon="1.3512">
        <ele>433.69</ele>
        <time>2017-03-30T11:38:41Z</time>
      </trkpt>
      <trkpt lat="43.08561" lon="1.35116">
        <ele>433.21</ele>
        <time>2017-03-30T11:38:56Z</time>
      </trkpt>
      <trkpt lat="43.08582" lon="1.35103">
        <ele>432.73</ele>
        <time>2017-03-30T11:39:15Z</time>
      </trkpt>
      <trkpt lat="43.08594" lon="1.35097">
        <ele>432.25</ele>
        <time>2017-03-30T11:39:25Z</time>
      </trkpt>
      <trkpt lat="43.08615" lon="1.35079">
        <ele>432.25</ele>
        <time>2017-03-30T11:39:47Z</time>
      </trkpt>
      <trkpt lat="43.08631" lon="1.35064">
        <ele>432.25</ele>
        <time>2017-03-30T11:40:03Z</time>
      </trkpt>
      <trkpt lat="43.08636" lon="1.35061">
        <ele>433.69</ele>
        <time>2017-03-30T11:40:08Z</time>
      </trkpt>
      <trkpt lat="43.08641" lon="1.35058">
        <ele>434.17</ele>
        <time>2017-03-30T11:40:13Z</time>
      </trkpt>
      <trkpt lat="43.08653" lon="1.35051">
        <ele>434.65</ele>
        <time>2017-03-30T11:40:24Z</time>
      </trkpt>
      <trkpt lat="43.08656" lon="1.3505">
        <ele>434.65</ele>
        <time>2017-03-30T11:40:28Z</time>
      </trkpt>
      <trkpt lat="43.08672" lon="1.35043">
        <ele>435.61</ele>
        <time>2017-03-30T11:40:41Z</time>
      </trkpt>
      <trkpt lat="43.0868" lon="1.35042">
        <ele>436.58</ele>
        <time>2017-03-30T11:40:50Z</time>
      </trkpt>
      <trkpt lat="43.08689" lon="1.35045">
        <ele>438.02</ele>
        <time>2017-03-30T11:40:58Z</time>
      </trkpt>
      <trkpt lat="43.08698" lon="1.35057">
        <ele>438.98</ele>
        <time>2017-03-30T11:41:11Z</time>
      </trkpt>
      <trkpt lat="43.08699" lon="1.35058">
        <ele>438.98</ele>
        <time>2017-03-30T11:41:33Z</time>
      </trkpt>
      <trkpt lat="43.08707" lon="1.35063">
        <ele>439.94</ele>
        <time>2017-03-30T11:41:58Z</time>
      </trkpt>
      <trkpt lat="43.08723" lon="1.35061">
        <ele>441.86</ele>
        <time>2017-03-30T11:42:14Z</time>
      </trkpt>
      <trkpt lat="43.08725" lon="1.35062">
        <ele>441.86</ele>
        <time>2017-03-30T11:42:16Z</time>
      </trkpt>
      <trkpt lat="43.08739" lon="1.35061">
        <ele>443.79</ele>
        <time>2017-03-30T11:42:31Z</time>
      </trkpt>
      <trkpt lat="43.08747" lon="1.35059">
        <ele>445.71</ele>
        <time>2017-03-30T11:42:42Z</time>
      </trkpt>
      <trkpt lat="43.08747" lon="1.35047">
        <ele>446.67</ele>
        <time>2017-03-30T11:42:54Z</time>
      </trkpt>
      <trkpt lat="43.08746" lon="1.35043">
        <ele>446.67</ele>
        <time>2017-03-30T11:42:57Z</time>
      </trkpt>
      <trkpt lat="43.08746" lon="1.35036">
        <ele>447.15</ele>
        <time>2017-03-30T11:43:12Z</time>
      </trkpt>
      <trkpt lat="43.08746" lon="1.35034">
        <ele>447.63</ele>
        <time>2017-03-30T11:43:23Z</time>
      </trkpt>
      <trkpt lat="43.08748" lon="1.35027">
        <ele>447.63</ele>
        <time>2017-03-30T11:43:27Z</time>
      </trkpt>
      <trkpt lat="43.08758" lon="1.35002">
        <ele>449.55</ele>
        <time>2017-03-30T11:43:44Z</time>
      </trkpt>
      <trkpt lat="43.08763" lon="1.34989">
        <ele>450.52</ele>
        <time>2017-03-30T11:43:54Z</time>
      </trkpt>
      <trkpt lat="43.08773" lon="1.3497">
        <ele>451.96</ele>
        <time>2017-03-30T11:44:09Z</time>
      </trkpt>
      <trkpt lat="43.08782" lon="1.34948">
        <ele>453.88</ele>
        <time>2017-03-30T11:44:25Z</time>
      </trkpt>
      <trkpt lat="43.08789" lon="1.34926">
        <ele>455.32</ele>
        <time>2017-03-30T11:44:39Z</time>
      </trkpt>
      <trkpt lat="43.08792" lon="1.34906">
        <ele>456.76</ele>
        <time>2017-03-30T11:44:52Z</time>
      </trkpt>
      <trkpt lat="43.08794" lon="1.34907">
        <ele>457.72</ele>
        <time>2017-03-30T11:45:07Z</time>
      </trkpt>
      <trkpt lat="43.08795" lon="1.34905">
        <ele>457.72</ele>
        <time>2017-03-30T11:45:17Z</time>
      </trkpt>
      <trkpt lat="43.088" lon="1.34881">
        <ele>458.69</ele>
        <time>2017-03-30T11:45:33Z</time>
      </trkpt>
      <trkpt lat="43.08803" lon="1.34873">
        <ele>459.17</ele>
        <time>2017-03-30T11:45:39Z</time>
      </trkpt>
      <trkpt lat="43.08813" lon="1.3485">
        <ele>461.57</ele>
        <time>2017-03-30T11:45:57Z</time>
      </trkpt>
      <trkpt lat="43.08816" lon="1.34836">
        <ele>462.53</ele>
        <time>2017-03-30T11:46:08Z</time>
      </trkpt>
      <trkpt lat="43.08818" lon="1.34814">
        <ele>464.45</ele>
        <time>2017-03-30T11:46:24Z</time>
      </trkpt>
      <trkpt lat="43.0882" lon="1.34805">
        <ele>465.42</ele>
        <time>2017-03-30T11:46:31Z</time>
      </trkpt>
      <trkpt lat="43.0883" lon="1.34793">
        <ele>466.86</ele>
        <time>2017-03-30T11:46:45Z</time>
      </trkpt>
      <trkpt lat="43.08837" lon="1.34787">
        <ele>470.22</ele>
        <time>2017-03-30T11:46:59Z</time>
      </trkpt>
      <trkpt lat="43.08847" lon="1.34787">
        <ele>472.63</ele>
        <time>2017-03-30T11:47:12Z</time>
      </trkpt>
      <trkpt lat="43.08856" lon="1.34782">
        <ele>474.55</ele>
        <time>2017-03-30T11:47:25Z</time>
      </trkpt>
      <trkpt lat="43.08867" lon="1.34773">
        <ele>477.43</ele>
        <time>2017-03-30T11:47:39Z</time>
      </trkpt>
      <trkpt lat="43.08875" lon="1.34762">
        <ele>480.32</ele>
        <time>2017-03-30T11:47:54Z</time>
      </trkpt>
      <trkpt lat="43.08882" lon="1.34749">
        <ele>483.68</ele>
        <time>2017-03-30T11:48:09Z</time>
      </trkpt>
      <trkpt lat="43.08888" lon="1.3474">
        <ele>487.05</ele>
        <time>2017-03-30T11:48:23Z</time>
      </trkpt>
      <trkpt lat="43.08895" lon="1.34731">
        <ele>489.93</ele>
        <time>2017-03-30T11:48:37Z</time>
      </trkpt>
      <trkpt lat="43.08901" lon="1.34724">
        <ele>492.81</ele>
        <time>2017-03-30T11:48:54Z</time>
      </trkpt>
      <trkpt lat="43.08904" lon="1.3472">
        <ele>494.26</ele>
        <time>2017-03-30T11:49:14Z</time>
      </trkpt>
      <trkpt lat="43.08909" lon="1.3471">
        <ele>497.62</ele>
        <time>2017-03-30T11:49:28Z</time>
      </trkpt>
      <trkpt lat="43.08914" lon="1.34701">
        <ele>500.98</ele>
        <time>2017-03-30T11:49:44Z</time>
      </trkpt>
      <trkpt lat="43.0892" lon="1.3469">
        <ele>503.87</ele>
        <time>2017-03-30T11:49:59Z</time>
      </trkpt>
      <trkpt lat="43.08925" lon="1.3468">
        <ele>507.23</ele>
        <time>2017-03-30T11:50:13Z</time>
      </trkpt>
      <trkpt lat="43.08931" lon="1.34669">
        <ele>510.12</ele>
        <time>2017-03-30T11:50:27Z</time>
      </trkpt>
      <trkpt lat="43.08937" lon="1.34661">
        <ele>513</ele>
        <time>2017-03-30T11:50:40Z</time>
      </trkpt>
      <trkpt lat="43.08941" lon="1.34652">
        <ele>514.92</ele>
        <time>2017-03-30T11:50:50Z</time>
      </trkpt>
      <trkpt lat="43.08943" lon="1.34648">
        <ele>515.4</ele>
        <time>2017-03-30T11:50:54Z</time>
      </trkpt>
      <trkpt lat="43.08949" lon="1.34631">
        <ele>517.81</ele>
        <time>2017-03-30T11:51:09Z</time>
      </trkpt>
      <trkpt lat="43.08949" lon="1.3463">
        <ele>517.81</ele>
        <time>2017-03-30T11:51:10Z</time>
      </trkpt>
      <trkpt lat="43.08954" lon="1.34613">
        <ele>519.73</ele>
        <time>2017-03-30T11:51:24Z</time>
      </trkpt>
      <trkpt lat="43.08958" lon="1.34607">
        <ele>521.65</ele>
        <time>2017-03-30T11:51:39Z</time>
      </trkpt>
      <trkpt lat="43.08965" lon="1.34585">
        <ele>523.58</ele>
        <time>2017-03-30T11:52:51Z</time>
      </trkpt>
      <trkpt lat="43.08971" lon="1.34571">
        <ele>525.98</ele>
        <time>2017-03-30T11:53:03Z</time>
      </trkpt>
      <trkpt lat="43.08976" lon="1.34556">
        <ele>527.42</ele>
        <time>2017-03-30T11:53:14Z</time>
      </trkpt>
      <trkpt lat="43.08981" lon="1.34544">
        <ele>528.86</ele>
        <time>2017-03-30T11:53:24Z</time>
      </trkpt>
      <trkpt lat="43.08987" lon="1.34519">
        <ele>529.82</ele>
        <time>2017-03-30T11:53:39Z</time>
      </trkpt>
      <trkpt lat="43.08992" lon="1.34497">
        <ele>531.75</ele>
        <time>2017-03-30T11:53:54Z</time>
      </trkpt>
      <trkpt lat="43.08998" lon="1.34473">
        <ele>531.75</ele>
        <time>2017-03-30T11:54:10Z</time>
      </trkpt>
      <trkpt lat="43.09002" lon="1.34449">
        <ele>531.75</ele>
        <time>2017-03-30T11:54:26Z</time>
      </trkpt>
      <trkpt lat="43.09008" lon="1.34432">
        <ele>532.71</ele>
        <time>2017-03-30T11:54:39Z</time>
      </trkpt>
      <trkpt lat="43.0901" lon="1.34427">
        <ele>532.71</ele>
        <time>2017-03-30T11:54:42Z</time>
      </trkpt>
      <trkpt lat="43.09013" lon="1.34406">
        <ele>531.27</ele>
        <time>2017-03-30T11:54:58Z</time>
      </trkpt>
      <trkpt lat="43.09016" lon="1.34394">
        <ele>531.27</ele>
        <time>2017-03-30T11:55:06Z</time>
      </trkpt>
      <trkpt lat="43.09021" lon="1.34381">
        <ele>530.79</ele>
        <time>2017-03-30T11:55:15Z</time>
      </trkpt>
      <trkpt lat="43.09026" lon="1.34358">
        <ele>529.82</ele>
        <time>2017-03-30T11:55:30Z</time>
      </trkpt>
      <trkpt lat="43.09029" lon="1.34334">
        <ele>528.38</ele>
        <time>2017-03-30T11:55:45Z</time>
      </trkpt>
      <trkpt lat="43.0903" lon="1.34322">
        <ele>527.42</ele>
        <time>2017-03-30T11:56:00Z</time>
      </trkpt>
      <trkpt lat="43.09019" lon="1.34326">
        <ele>525.98</ele>
        <time>2017-03-30T11:58:58Z</time>
      </trkpt>
      <trkpt lat="43.09" lon="1.34328">
        <ele>525.98</ele>
        <time>2017-03-30T11:59:13Z</time>
      </trkpt>
      <trkpt lat="43.08986" lon="1.34334">
        <ele>527.9</ele>
        <time>2017-03-30T11:59:28Z</time>
      </trkpt>
      <trkpt lat="43.0897" lon="1.34334">
        <ele>525.98</ele>
        <time>2017-03-30T11:59:41Z</time>
      </trkpt>
      <trkpt lat="43.08959" lon="1.34329">
        <ele>525.5</ele>
        <time>2017-03-30T11:59:52Z</time>
      </trkpt>
      <trkpt lat="43.08949" lon="1.34328">
        <ele>525.02</ele>
        <time>2017-03-30T12:00:01Z</time>
      </trkpt>
      <trkpt lat="43.08932" lon="1.34332">
        <ele>526.46</ele>
        <time>2017-03-30T12:00:14Z</time>
      </trkpt>
      <trkpt lat="43.08914" lon="1.34331">
        <ele>526.94</ele>
        <time>2017-03-30T12:00:30Z</time>
      </trkpt>
      <trkpt lat="43.08901" lon="1.34329">
        <ele>527.9</ele>
        <time>2017-03-30T12:00:43Z</time>
      </trkpt>
      <trkpt lat="43.08892" lon="1.3433">
        <ele>526.46</ele>
        <time>2017-03-30T12:00:53Z</time>
      </trkpt>
      <trkpt lat="43.08885" lon="1.34328">
        <ele>528.38</ele>
        <time>2017-03-30T12:01:04Z</time>
      </trkpt>
      <trkpt lat="43.08876" lon="1.34321">
        <ele>529.34</ele>
        <time>2017-03-30T12:01:16Z</time>
      </trkpt>
      <trkpt lat="43.08877" lon="1.3431">
        <ele>532.23</ele>
        <time>2017-03-30T12:01:29Z</time>
      </trkpt>
      <trkpt lat="43.0888" lon="1.34299">
        <ele>534.15</ele>
        <time>2017-03-30T12:01:42Z</time>
      </trkpt>
      <trkpt lat="43.08884" lon="1.34284">
        <ele>536.55</ele>
        <time>2017-03-30T12:01:57Z</time>
      </trkpt>
      <trkpt lat="43.08889" lon="1.34276">
        <ele>539.44</ele>
        <time>2017-03-30T12:02:09Z</time>
      </trkpt>
      <trkpt lat="43.08894" lon="1.34266">
        <ele>541.36</ele>
        <time>2017-03-30T12:02:23Z</time>
      </trkpt>
      <trkpt lat="43.089" lon="1.34252">
        <ele>543.76</ele>
        <time>2017-03-30T12:02:36Z</time>
      </trkpt>
      <trkpt lat="43.08905" lon="1.34238">
        <ele>546.65</ele>
        <time>2017-03-30T12:02:50Z</time>
      </trkpt>
      <trkpt lat="43.08908" lon="1.34226">
        <ele>549.53</ele>
        <time>2017-03-30T12:03:04Z</time>
      </trkpt>
      <trkpt lat="43.08914" lon="1.34214">
        <ele>551.93</ele>
        <time>2017-03-30T12:03:19Z</time>
      </trkpt>
      <trkpt lat="43.08917" lon="1.34198">
        <ele>554.82</ele>
        <time>2017-03-30T12:03:35Z</time>
      </trkpt>
      <trkpt lat="43.08922" lon="1.34178">
        <ele>556.26</ele>
        <time>2017-03-30T12:03:50Z</time>
      </trkpt>
      <trkpt lat="43.08926" lon="1.34165">
        <ele>557.22</ele>
        <time>2017-03-30T12:04:02Z</time>
      </trkpt>
      <trkpt lat="43.08929" lon="1.34154">
        <ele>558.18</ele>
        <time>2017-03-30T12:04:11Z</time>
      </trkpt>
      <trkpt lat="43.08928" lon="1.34134">
        <ele>559.62</ele>
        <time>2017-03-30T12:04:24Z</time>
      </trkpt>
      <trkpt lat="43.08933" lon="1.34114">
        <ele>560.11</ele>
        <time>2017-03-30T12:04:40Z</time>
      </trkpt>
      <trkpt lat="43.08936" lon="1.34095">
        <ele>561.07</ele>
        <time>2017-03-30T12:04:54Z</time>
      </trkpt>
      <trkpt lat="43.08939" lon="1.34076">
        <ele>561.55</ele>
        <time>2017-03-30T12:05:08Z</time>
      </trkpt>
      <trkpt lat="43.08942" lon="1.34052">
        <ele>561.55</ele>
        <time>2017-03-30T12:05:23Z</time>
      </trkpt>
      <trkpt lat="43.08945" lon="1.34038">
        <ele>560.11</ele>
        <time>2017-03-30T12:05:31Z</time>
      </trkpt>
      <trkpt lat="43.08949" lon="1.34018">
        <ele>559.62</ele>
        <time>2017-03-30T12:05:44Z</time>
      </trkpt>
      <trkpt lat="43.08951" lon="1.34011">
        <ele>559.14</ele>
        <time>2017-03-30T12:05:49Z</time>
      </trkpt>
      <trkpt lat="43.08953" lon="1.34003">
        <ele>558.66</ele>
        <time>2017-03-30T12:05:54Z</time>
      </trkpt>
      <trkpt lat="43.08955" lon="1.33997">
        <ele>558.66</ele>
        <time>2017-03-30T12:05:58Z</time>
      </trkpt>
      <trkpt lat="43.08958" lon="1.33968">
        <ele>557.22</ele>
        <time>2017-03-30T12:06:17Z</time>
      </trkpt>
      <trkpt lat="43.08958" lon="1.3395">
        <ele>557.22</ele>
        <time>2017-03-30T12:06:29Z</time>
      </trkpt>
      <trkpt lat="43.0896" lon="1.33928">
        <ele>557.22</ele>
        <time>2017-03-30T12:06:41Z</time>
      </trkpt>
      <trkpt lat="43.08962" lon="1.33907">
        <ele>557.22</ele>
        <time>2017-03-30T12:06:55Z</time>
      </trkpt>
      <trkpt lat="43.08962" lon="1.33883">
        <ele>557.22</ele>
        <time>2017-03-30T12:07:10Z</time>
      </trkpt>
      <trkpt lat="43.08963" lon="1.33869">
        <ele>557.22</ele>
        <time>2017-03-30T12:07:18Z</time>
      </trkpt>
      <trkpt lat="43.08963" lon="1.33848">
        <ele>557.22</ele>
        <time>2017-03-30T12:07:32Z</time>
      </trkpt>
      <trkpt lat="43.08961" lon="1.33846">
        <ele>558.66</ele>
        <time>2017-03-30T12:07:34Z</time>
      </trkpt>
      <trkpt lat="43.08959" lon="1.33838">
        <ele>560.59</ele>
        <time>2017-03-30T12:07:47Z</time>
      </trkpt>
      <trkpt lat="43.0896" lon="1.33829">
        <ele>560.59</ele>
        <time>2017-03-30T12:08:04Z</time>
      </trkpt>
      <trkpt lat="43.08963" lon="1.3381">
        <ele>561.07</ele>
        <time>2017-03-30T12:08:18Z</time>
      </trkpt>
      <trkpt lat="43.08965" lon="1.33792">
        <ele>561.07</ele>
        <time>2017-03-30T12:08:32Z</time>
      </trkpt>
      <trkpt lat="43.08967" lon="1.33775">
        <ele>562.03</ele>
        <time>2017-03-30T12:08:45Z</time>
      </trkpt>
      <trkpt lat="43.08969" lon="1.33756">
        <ele>562.99</ele>
        <time>2017-03-30T12:08:57Z</time>
      </trkpt>
      <trkpt lat="43.08972" lon="1.33743">
        <ele>563.47</ele>
        <time>2017-03-30T12:09:07Z</time>
      </trkpt>
      <trkpt lat="43.08975" lon="1.33715">
        <ele>564.43</ele>
        <time>2017-03-30T12:09:24Z</time>
      </trkpt>
      <trkpt lat="43.08976" lon="1.33711">
        <ele>564.43</ele>
        <time>2017-03-30T12:09:27Z</time>
      </trkpt>
      <trkpt lat="43.08976" lon="1.33706">
        <ele>564.91</ele>
        <time>2017-03-30T12:09:31Z</time>
      </trkpt>
      <trkpt lat="43.08977" lon="1.33703">
        <ele>565.39</ele>
        <time>2017-03-30T12:09:33Z</time>
      </trkpt>
      <trkpt lat="43.08979" lon="1.33682">
        <ele>565.87</ele>
        <time>2017-03-30T12:09:47Z</time>
      </trkpt>
      <trkpt lat="43.08982" lon="1.33657">
        <ele>567.32</ele>
        <time>2017-03-30T12:10:03Z</time>
      </trkpt>
      <trkpt lat="43.08985" lon="1.33638">
        <ele>568.28</ele>
        <time>2017-03-30T12:10:17Z</time>
      </trkpt>
      <trkpt lat="43.08984" lon="1.33632">
        <ele>568.28</ele>
        <time>2017-03-30T12:10:21Z</time>
      </trkpt>
      <trkpt lat="43.08986" lon="1.33622">
        <ele>568.28</ele>
        <time>2017-03-30T12:10:28Z</time>
      </trkpt>
      <trkpt lat="43.08987" lon="1.33604">
        <ele>568.76</ele>
        <time>2017-03-30T12:10:40Z</time>
      </trkpt>
      <trkpt lat="43.08989" lon="1.33598">
        <ele>568.76</ele>
        <time>2017-03-30T12:10:54Z</time>
      </trkpt>
      <trkpt lat="43.08989" lon="1.33591">
        <ele>569.24</ele>
        <time>2017-03-30T12:11:14Z</time>
      </trkpt>
      <trkpt lat="43.08991" lon="1.33584">
        <ele>569.24</ele>
        <time>2017-03-30T12:11:20Z</time>
      </trkpt>
      <trkpt lat="43.08993" lon="1.33561">
        <ele>569.24</ele>
        <time>2017-03-30T12:11:36Z</time>
      </trkpt>
      <trkpt lat="43.08992" lon="1.33545">
        <ele>569.24</ele>
        <time>2017-03-30T12:11:52Z</time>
      </trkpt>
      <trkpt lat="43.08991" lon="1.33531">
        <ele>567.8</ele>
        <time>2017-03-30T12:12:03Z</time>
      </trkpt>
      <trkpt lat="43.08991" lon="1.3353">
        <ele>567.8</ele>
        <time>2017-03-30T12:12:04Z</time>
      </trkpt>
      <trkpt lat="43.08992" lon="1.33518">
        <ele>567.8</ele>
        <time>2017-03-30T12:12:13Z</time>
      </trkpt>
      <trkpt lat="43.08993" lon="1.33498">
        <ele>566.83</ele>
        <time>2017-03-30T12:12:26Z</time>
      </trkpt>
      <trkpt lat="43.08993" lon="1.33474">
        <ele>565.87</ele>
        <time>2017-03-30T12:12:41Z</time>
      </trkpt>
      <trkpt lat="43.08994" lon="1.33451">
        <ele>565.39</ele>
        <time>2017-03-30T12:12:56Z</time>
      </trkpt>
      <trkpt lat="43.08994" lon="1.33445">
        <ele>564.91</ele>
        <time>2017-03-30T12:13:00Z</time>
      </trkpt>
      <trkpt lat="43.08994" lon="1.33427">
        <ele>564.43</ele>
        <time>2017-03-30T12:13:11Z</time>
      </trkpt>
      <trkpt lat="43.08995" lon="1.3342">
        <ele>564.43</ele>
        <time>2017-03-30T12:13:16Z</time>
      </trkpt>
      <trkpt lat="43.08995" lon="1.33417">
        <ele>564.43</ele>
        <time>2017-03-30T12:13:18Z</time>
      </trkpt>
      <trkpt lat="43.08996" lon="1.33399">
        <ele>563.95</ele>
        <time>2017-03-30T12:13:29Z</time>
      </trkpt>
      <trkpt lat="43.08998" lon="1.33381">
        <ele>563.95</ele>
        <time>2017-03-30T12:13:42Z</time>
      </trkpt>
      <trkpt lat="43.08999" lon="1.3336">
        <ele>563.95</ele>
        <time>2017-03-30T12:13:56Z</time>
      </trkpt>
      <trkpt lat="43.09" lon="1.33348">
        <ele>563.95</ele>
        <time>2017-03-30T12:14:03Z</time>
      </trkpt>
      <trkpt lat="43.09001" lon="1.33328">
        <ele>563.95</ele>
        <time>2017-03-30T12:14:16Z</time>
      </trkpt>
      <trkpt lat="43.09001" lon="1.33321">
        <ele>563.95</ele>
        <time>2017-03-30T12:14:21Z</time>
      </trkpt>
      <trkpt lat="43.08996" lon="1.33312">
        <ele>563.95</ele>
        <time>2017-03-30T12:14:41Z</time>
      </trkpt>
      <trkpt lat="43.08997" lon="1.33301">
        <ele>563.95</ele>
        <time>2017-03-30T12:14:55Z</time>
      </trkpt>
      <trkpt lat="43.08999" lon="1.33292">
        <ele>564.91</ele>
        <time>2017-03-30T12:15:09Z</time>
      </trkpt>
      <trkpt lat="43.09" lon="1.33288">
        <ele>564.91</ele>
        <time>2017-03-30T12:15:20Z</time>
      </trkpt>
      <trkpt lat="43.08997" lon="1.33288">
        <ele>564.91</ele>
        <time>2017-03-30T12:15:35Z</time>
      </trkpt>
      <trkpt lat="43.08993" lon="1.33287">
        <ele>564.91</ele>
        <time>2017-03-30T12:15:47Z</time>
      </trkpt>
      <trkpt lat="43.08995" lon="1.33279">
        <ele>563.95</ele>
        <time>2017-03-30T12:16:26Z</time>
      </trkpt>
      <trkpt lat="43.09" lon="1.33268">
        <ele>563.95</ele>
        <time>2017-03-30T12:16:42Z</time>
      </trkpt>
      <trkpt lat="43.09008" lon="1.33263">
        <ele>562.99</ele>
        <time>2017-03-30T12:16:57Z</time>
      </trkpt>
      <trkpt lat="43.09013" lon="1.33251">
        <ele>562.51</ele>
        <time>2017-03-30T12:17:10Z</time>
      </trkpt>
      <trkpt lat="43.09013" lon="1.33241">
        <ele>562.99</ele>
        <time>2017-03-30T12:17:17Z</time>
      </trkpt>
      <trkpt lat="43.09015" lon="1.33219">
        <ele>561.55</ele>
        <time>2017-03-30T12:17:33Z</time>
      </trkpt>
      <trkpt lat="43.09018" lon="1.33201">
        <ele>561.07</ele>
        <time>2017-03-30T12:17:46Z</time>
      </trkpt>
      <trkpt lat="43.09018" lon="1.33198">
        <ele>561.07</ele>
        <time>2017-03-30T12:17:48Z</time>
      </trkpt>
      <trkpt lat="43.09019" lon="1.33184">
        <ele>560.59</ele>
        <time>2017-03-30T12:17:56Z</time>
      </trkpt>
      <trkpt lat="43.09021" lon="1.33157">
        <ele>560.11</ele>
        <time>2017-03-30T12:18:12Z</time>
      </trkpt>
      <trkpt lat="43.09021" lon="1.33131">
        <ele>559.14</ele>
        <time>2017-03-30T12:18:28Z</time>
      </trkpt>
      <trkpt lat="43.09021" lon="1.33117">
        <ele>558.66</ele>
        <time>2017-03-30T12:18:41Z</time>
      </trkpt>
      <trkpt lat="43.09023" lon="1.33099">
        <ele>558.18</ele>
        <time>2017-03-30T12:18:54Z</time>
      </trkpt>
      <trkpt lat="43.09024" lon="1.33091">
        <ele>558.18</ele>
        <time>2017-03-30T12:19:00Z</time>
      </trkpt>
      <trkpt lat="43.09025" lon="1.33088">
        <ele>558.18</ele>
        <time>2017-03-30T12:19:02Z</time>
      </trkpt>
      <trkpt lat="43.09027" lon="1.3307">
        <ele>558.18</ele>
        <time>2017-03-30T12:19:13Z</time>
      </trkpt>
      <trkpt lat="43.09024" lon="1.33049">
        <ele>558.18</ele>
        <time>2017-03-30T12:19:26Z</time>
      </trkpt>
      <trkpt lat="43.09026" lon="1.33024">
        <ele>559.14</ele>
        <time>2017-03-30T12:19:43Z</time>
      </trkpt>
      <trkpt lat="43.09027" lon="1.33">
        <ele>559.14</ele>
        <time>2017-03-30T12:19:58Z</time>
      </trkpt>
      <trkpt lat="43.09028" lon="1.32971">
        <ele>559.14</ele>
        <time>2017-03-30T12:20:13Z</time>
      </trkpt>
      <trkpt lat="43.09029" lon="1.3295">
        <ele>557.7</ele>
        <time>2017-03-30T12:20:25Z</time>
      </trkpt>
      <trkpt lat="43.0903" lon="1.32938">
        <ele>557.7</ele>
        <time>2017-03-30T12:20:33Z</time>
      </trkpt>
      <trkpt lat="43.0903" lon="1.32935">
        <ele>557.7</ele>
        <time>2017-03-30T12:20:35Z</time>
      </trkpt>
      <trkpt lat="43.09032" lon="1.32911">
        <ele>557.7</ele>
        <time>2017-03-30T12:20:49Z</time>
      </trkpt>
      <trkpt lat="43.09032" lon="1.32899">
        <ele>557.7</ele>
        <time>2017-03-30T12:20:57Z</time>
      </trkpt>
      <trkpt lat="43.09032" lon="1.32876">
        <ele>558.66</ele>
        <time>2017-03-30T12:21:11Z</time>
      </trkpt>
      <trkpt lat="43.09033" lon="1.3286">
        <ele>559.14</ele>
        <time>2017-03-30T12:21:22Z</time>
      </trkpt>
      <trkpt lat="43.09034" lon="1.32844">
        <ele>560.11</ele>
        <time>2017-03-30T12:21:32Z</time>
      </trkpt>
      <trkpt lat="43.09035" lon="1.32835">
        <ele>560.59</ele>
        <time>2017-03-30T12:21:38Z</time>
      </trkpt>
      <trkpt lat="43.09036" lon="1.32825">
        <ele>560.59</ele>
        <time>2017-03-30T12:21:45Z</time>
      </trkpt>
      <trkpt lat="43.09037" lon="1.32803">
        <ele>561.55</ele>
        <time>2017-03-30T12:21:57Z</time>
      </trkpt>
      <trkpt lat="43.09038" lon="1.32786">
        <ele>562.51</ele>
        <time>2017-03-30T12:22:08Z</time>
      </trkpt>
      <trkpt lat="43.09039" lon="1.3277">
        <ele>563.47</ele>
        <time>2017-03-30T12:22:19Z</time>
      </trkpt>
      <trkpt lat="43.0904" lon="1.3275">
        <ele>564.43</ele>
        <time>2017-03-30T12:22:31Z</time>
      </trkpt>
      <trkpt lat="43.0904" lon="1.32742">
        <ele>564.91</ele>
        <time>2017-03-30T12:22:43Z</time>
      </trkpt>
      <trkpt lat="43.0904" lon="1.32743">
        <ele>565.39</ele>
        <time>2017-03-30T12:23:10Z</time>
      </trkpt>
      <trkpt lat="43.09038" lon="1.32733">
        <ele>565.87</ele>
        <time>2017-03-30T12:23:44Z</time>
      </trkpt>
      <trkpt lat="43.0904" lon="1.32715">
        <ele>566.35</ele>
        <time>2017-03-30T12:23:57Z</time>
      </trkpt>
      <trkpt lat="43.09041" lon="1.32697">
        <ele>566.35</ele>
        <time>2017-03-30T12:24:09Z</time>
      </trkpt>
      <trkpt lat="43.09042" lon="1.32673">
        <ele>566.35</ele>
        <time>2017-03-30T12:24:24Z</time>
      </trkpt>
      <trkpt lat="43.09043" lon="1.32654">
        <ele>564.91</ele>
        <time>2017-03-30T12:24:37Z</time>
      </trkpt>
      <trkpt lat="43.09044" lon="1.32634">
        <ele>563.47</ele>
        <time>2017-03-30T12:24:51Z</time>
      </trkpt>
      <trkpt lat="43.09045" lon="1.32612">
        <ele>562.51</ele>
        <time>2017-03-30T12:25:04Z</time>
      </trkpt>
      <trkpt lat="43.09045" lon="1.32606">
        <ele>562.03</ele>
        <time>2017-03-30T12:25:07Z</time>
      </trkpt>
      <trkpt lat="43.09045" lon="1.32584">
        <ele>562.03</ele>
        <time>2017-03-30T12:25:22Z</time>
      </trkpt>
      <trkpt lat="43.09044" lon="1.32564">
        <ele>562.03</ele>
        <time>2017-03-30T12:25:35Z</time>
      </trkpt>
      <trkpt lat="43.09043" lon="1.32541">
        <ele>561.55</ele>
        <time>2017-03-30T12:25:50Z</time>
      </trkpt>
      <trkpt lat="43.09043" lon="1.32534">
        <ele>560.59</ele>
        <time>2017-03-30T12:25:55Z</time>
      </trkpt>
      <trkpt lat="43.09046" lon="1.32513">
        <ele>559.62</ele>
        <time>2017-03-30T12:26:07Z</time>
      </trkpt>
      <trkpt lat="43.09051" lon="1.32502">
        <ele>559.62</ele>
        <time>2017-03-30T12:26:15Z</time>
      </trkpt>
      <trkpt lat="43.09063" lon="1.32487">
        <ele>560.59</ele>
        <time>2017-03-30T12:26:31Z</time>
      </trkpt>
      <trkpt lat="43.09078" lon="1.32477">
        <ele>561.55</ele>
        <time>2017-03-30T12:26:45Z</time>
      </trkpt>
      <trkpt lat="43.09085" lon="1.32475">
        <ele>562.03</ele>
        <time>2017-03-30T12:26:52Z</time>
      </trkpt>
      <trkpt lat="43.091" lon="1.32474">
        <ele>564.43</ele>
        <time>2017-03-30T12:27:08Z</time>
      </trkpt>
      <trkpt lat="43.09113" lon="1.32476">
        <ele>567.32</ele>
        <time>2017-03-30T12:27:21Z</time>
      </trkpt>
      <trkpt lat="43.09124" lon="1.3247">
        <ele>568.28</ele>
        <time>2017-03-30T12:27:34Z</time>
      </trkpt>
      <trkpt lat="43.09131" lon="1.32468">
        <ele>570.68</ele>
        <time>2017-03-30T12:27:47Z</time>
      </trkpt>
      <trkpt lat="43.09133" lon="1.32465">
        <ele>571.16</ele>
        <time>2017-03-30T12:27:50Z</time>
      </trkpt>
      <trkpt lat="43.09135" lon="1.32459">
        <ele>571.16</ele>
        <time>2017-03-30T12:27:55Z</time>
      </trkpt>
      <trkpt lat="43.09135" lon="1.32435">
        <ele>571.16</ele>
        <time>2017-03-30T12:28:11Z</time>
      </trkpt>
      <trkpt lat="43.09135" lon="1.32433">
        <ele>571.16</ele>
        <time>2017-03-30T12:28:12Z</time>
      </trkpt>
      <trkpt lat="43.09135" lon="1.3243">
        <ele>571.16</ele>
        <time>2017-03-30T12:28:14Z</time>
      </trkpt>
      <trkpt lat="43.09136" lon="1.32405">
        <ele>569.24</ele>
        <time>2017-03-30T12:28:30Z</time>
      </trkpt>
      <trkpt lat="43.09136" lon="1.32373">
        <ele>566.83</ele>
        <time>2017-03-30T12:28:49Z</time>
      </trkpt>
      <trkpt lat="43.09136" lon="1.3237">
        <ele>566.83</ele>
        <time>2017-03-30T12:28:51Z</time>
      </trkpt>
      <trkpt lat="43.09137" lon="1.32361">
        <ele>565.87</ele>
        <time>2017-03-30T12:28:56Z</time>
      </trkpt>
      <trkpt lat="43.09137" lon="1.32341">
        <ele>564.91</ele>
        <time>2017-03-30T12:29:09Z</time>
      </trkpt>
      <trkpt lat="43.09137" lon="1.32316">
        <ele>563.47</ele>
        <time>2017-03-30T12:29:24Z</time>
      </trkpt>
      <trkpt lat="43.09137" lon="1.32293">
        <ele>562.51</ele>
        <time>2017-03-30T12:29:38Z</time>
      </trkpt>
      <trkpt lat="43.09137" lon="1.32266">
        <ele>561.07</ele>
        <time>2017-03-30T12:29:54Z</time>
      </trkpt>
      <trkpt lat="43.09139" lon="1.32246">
        <ele>560.59</ele>
        <time>2017-03-30T12:30:06Z</time>
      </trkpt>
      <trkpt lat="43.09144" lon="1.32223">
        <ele>559.62</ele>
        <time>2017-03-30T12:30:20Z</time>
      </trkpt>
      <trkpt lat="43.09145" lon="1.32208">
        <ele>560.11</ele>
        <time>2017-03-30T12:30:29Z</time>
      </trkpt>
      <trkpt lat="43.09148" lon="1.32186">
        <ele>559.62</ele>
        <time>2017-03-30T12:30:43Z</time>
      </trkpt>
      <trkpt lat="43.0915" lon="1.32167">
        <ele>559.14</ele>
        <time>2017-03-30T12:30:55Z</time>
      </trkpt>
      <trkpt lat="43.09152" lon="1.32149">
        <ele>558.66</ele>
        <time>2017-03-30T12:31:08Z</time>
      </trkpt>
      <trkpt lat="43.09153" lon="1.32126">
        <ele>558.18</ele>
        <time>2017-03-30T12:31:22Z</time>
      </trkpt>
      <trkpt lat="43.09153" lon="1.32104">
        <ele>557.7</ele>
        <time>2017-03-30T12:31:36Z</time>
      </trkpt>
      <trkpt lat="43.09154" lon="1.32079">
        <ele>556.74</ele>
        <time>2017-03-30T12:31:51Z</time>
      </trkpt>
      <trkpt lat="43.09153" lon="1.32051">
        <ele>555.78</ele>
        <time>2017-03-30T12:32:07Z</time>
      </trkpt>
      <trkpt lat="43.09152" lon="1.32033">
        <ele>555.3</ele>
        <time>2017-03-30T12:32:18Z</time>
      </trkpt>
      <trkpt lat="43.09152" lon="1.3203">
        <ele>555.3</ele>
        <time>2017-03-30T12:32:20Z</time>
      </trkpt>
      <trkpt lat="43.09151" lon="1.32004">
        <ele>554.34</ele>
        <time>2017-03-30T12:32:35Z</time>
      </trkpt>
      <trkpt lat="43.09151" lon="1.32">
        <ele>554.34</ele>
        <time>2017-03-30T12:32:38Z</time>
      </trkpt>
      <trkpt lat="43.0915" lon="1.31976">
        <ele>552.9</ele>
        <time>2017-03-30T12:32:52Z</time>
      </trkpt>
      <trkpt lat="43.09146" lon="1.31966">
        <ele>552.41</ele>
        <time>2017-03-30T12:33:02Z</time>
      </trkpt>
      <trkpt lat="43.09145" lon="1.31959">
        <ele>551.93</ele>
        <time>2017-03-30T12:33:08Z</time>
      </trkpt>
      <trkpt lat="43.09144" lon="1.31955">
        <ele>550.97</ele>
        <time>2017-03-30T12:33:11Z</time>
      </trkpt>
      <trkpt lat="43.09143" lon="1.31929">
        <ele>550.97</ele>
        <time>2017-03-30T12:33:25Z</time>
      </trkpt>
      <trkpt lat="43.09144" lon="1.31908">
        <ele>549.53</ele>
        <time>2017-03-30T12:33:39Z</time>
      </trkpt>
      <trkpt lat="43.09144" lon="1.31903">
        <ele>549.53</ele>
        <time>2017-03-30T12:33:42Z</time>
      </trkpt>
      <trkpt lat="43.09142" lon="1.31876">
        <ele>549.05</ele>
        <time>2017-03-30T12:33:58Z</time>
      </trkpt>
      <trkpt lat="43.09142" lon="1.31858">
        <ele>548.57</ele>
        <time>2017-03-30T12:34:09Z</time>
      </trkpt>
      <trkpt lat="43.09143" lon="1.31846">
        <ele>548.09</ele>
        <time>2017-03-30T12:34:16Z</time>
      </trkpt>
      <trkpt lat="43.09143" lon="1.31839">
        <ele>548.09</ele>
        <time>2017-03-30T12:34:20Z</time>
      </trkpt>
      <trkpt lat="43.09143" lon="1.3183">
        <ele>548.09</ele>
        <time>2017-03-30T12:34:25Z</time>
      </trkpt>
      <trkpt lat="43.09144" lon="1.31805">
        <ele>548.09</ele>
        <time>2017-03-30T12:34:39Z</time>
      </trkpt>
      <trkpt lat="43.09143" lon="1.31778">
        <ele>548.09</ele>
        <time>2017-03-30T12:34:53Z</time>
      </trkpt>
      <trkpt lat="43.09144" lon="1.31752">
        <ele>548.09</ele>
        <time>2017-03-30T12:35:08Z</time>
      </trkpt>
      <trkpt lat="43.09144" lon="1.31744">
        <ele>548.09</ele>
        <time>2017-03-30T12:35:13Z</time>
      </trkpt>
      <trkpt lat="43.09144" lon="1.31716">
        <ele>548.09</ele>
        <time>2017-03-30T12:35:30Z</time>
      </trkpt>
      <trkpt lat="43.09144" lon="1.31704">
        <ele>548.09</ele>
        <time>2017-03-30T12:35:37Z</time>
      </trkpt>
      <trkpt lat="43.09132" lon="1.31696">
        <ele>546.65</ele>
        <time>2017-03-30T12:35:51Z</time>
      </trkpt>
      <trkpt lat="43.09128" lon="1.31693">
        <ele>546.17</ele>
        <time>2017-03-30T12:35:56Z</time>
      </trkpt>
      <trkpt lat="43.09129" lon="1.31669">
        <ele>545.2</ele>
        <time>2017-03-30T12:36:12Z</time>
      </trkpt>
      <trkpt lat="43.09129" lon="1.31657">
        <ele>545.2</ele>
        <time>2017-03-30T12:36:26Z</time>
      </trkpt>
      <trkpt lat="43.0913" lon="1.31639">
        <ele>545.2</ele>
        <time>2017-03-30T12:36:41Z</time>
      </trkpt>
      <trkpt lat="43.09131" lon="1.31622">
        <ele>545.2</ele>
        <time>2017-03-30T12:36:52Z</time>
      </trkpt>
      <trkpt lat="43.09131" lon="1.31598">
        <ele>544.72</ele>
        <time>2017-03-30T12:37:06Z</time>
      </trkpt>
      <trkpt lat="43.0913" lon="1.31576">
        <ele>544.24</ele>
        <time>2017-03-30T12:37:20Z</time>
      </trkpt>
      <trkpt lat="43.09129" lon="1.31569">
        <ele>543.76</ele>
        <time>2017-03-30T12:37:24Z</time>
      </trkpt>
      <trkpt lat="43.0913" lon="1.31563">
        <ele>544.24</ele>
        <time>2017-03-30T12:37:28Z</time>
      </trkpt>
      <trkpt lat="43.09128" lon="1.31534">
        <ele>543.76</ele>
        <time>2017-03-30T12:37:45Z</time>
      </trkpt>
      <trkpt lat="43.09127" lon="1.31505">
        <ele>543.76</ele>
        <time>2017-03-30T12:38:02Z</time>
      </trkpt>
      <trkpt lat="43.09128" lon="1.31486">
        <ele>543.76</ele>
        <time>2017-03-30T12:38:14Z</time>
      </trkpt>
      <trkpt lat="43.09128" lon="1.31482">
        <ele>543.76</ele>
        <time>2017-03-30T12:38:16Z</time>
      </trkpt>
      <trkpt lat="43.09129" lon="1.31477">
        <ele>543.76</ele>
        <time>2017-03-30T12:38:19Z</time>
      </trkpt>
      <trkpt lat="43.09134" lon="1.31465">
        <ele>545.2</ele>
        <time>2017-03-30T12:38:28Z</time>
      </trkpt>
      <trkpt lat="43.09134" lon="1.31446">
        <ele>545.69</ele>
        <time>2017-03-30T12:38:39Z</time>
      </trkpt>
      <trkpt lat="43.09135" lon="1.31435">
        <ele>545.69</ele>
        <time>2017-03-30T12:38:45Z</time>
      </trkpt>
      <trkpt lat="43.09135" lon="1.31417">
        <ele>545.69</ele>
        <time>2017-03-30T12:38:57Z</time>
      </trkpt>
      <trkpt lat="43.09134" lon="1.31414">
        <ele>545.69</ele>
        <time>2017-03-30T12:38:59Z</time>
      </trkpt>
      <trkpt lat="43.09135" lon="1.31381">
        <ele>546.17</ele>
        <time>2017-03-30T12:39:17Z</time>
      </trkpt>
      <trkpt lat="43.09134" lon="1.31354">
        <ele>546.17</ele>
        <time>2017-03-30T12:39:33Z</time>
      </trkpt>
      <trkpt lat="43.09134" lon="1.31344">
        <ele>546.17</ele>
        <time>2017-03-30T12:39:39Z</time>
      </trkpt>
      <trkpt lat="43.09134" lon="1.31324">
        <ele>546.17</ele>
        <time>2017-03-30T12:39:51Z</time>
      </trkpt>
      <trkpt lat="43.09133" lon="1.31313">
        <ele>546.17</ele>
        <time>2017-03-30T12:39:58Z</time>
      </trkpt>
      <trkpt lat="43.09132" lon="1.31287">
        <ele>544.72</ele>
        <time>2017-03-30T12:40:14Z</time>
      </trkpt>
      <trkpt lat="43.09133" lon="1.31269">
        <ele>544.24</ele>
        <time>2017-03-30T12:40:25Z</time>
      </trkpt>
      <trkpt lat="43.09134" lon="1.3124">
        <ele>544.24</ele>
        <time>2017-03-30T12:40:42Z</time>
      </trkpt>
      <trkpt lat="43.09134" lon="1.3121">
        <ele>543.76</ele>
        <time>2017-03-30T12:41:00Z</time>
      </trkpt>
      <trkpt lat="43.09135" lon="1.31204">
        <ele>543.76</ele>
        <time>2017-03-30T12:41:05Z</time>
      </trkpt>
      <trkpt lat="43.09134" lon="1.31169">
        <ele>543.76</ele>
        <time>2017-03-30T12:41:23Z</time>
      </trkpt>
      <trkpt lat="43.09134" lon="1.31136">
        <ele>543.76</ele>
        <time>2017-03-30T12:41:41Z</time>
      </trkpt>
      <trkpt lat="43.09135" lon="1.31105">
        <ele>543.76</ele>
        <time>2017-03-30T12:41:59Z</time>
      </trkpt>
      <trkpt lat="43.09136" lon="1.31087">
        <ele>543.76</ele>
        <time>2017-03-30T12:42:09Z</time>
      </trkpt>
      <trkpt lat="43.09137" lon="1.31063">
        <ele>545.2</ele>
        <time>2017-03-30T12:42:24Z</time>
      </trkpt>
      <trkpt lat="43.09137" lon="1.31056">
        <ele>545.2</ele>
        <time>2017-03-30T12:42:28Z</time>
      </trkpt>
      <trkpt lat="43.09134" lon="1.31027">
        <ele>546.17</ele>
        <time>2017-03-30T12:42:46Z</time>
      </trkpt>
      <trkpt lat="43.09136" lon="1.31002">
        <ele>547.13</ele>
        <time>2017-03-30T12:43:02Z</time>
      </trkpt>
      <trkpt lat="43.09136" lon="1.30973">
        <ele>548.57</ele>
        <time>2017-03-30T12:43:20Z</time>
      </trkpt>
      <trkpt lat="43.09138" lon="1.30949">
        <ele>549.53</ele>
        <time>2017-03-30T12:43:36Z</time>
      </trkpt>
      <trkpt lat="43.09139" lon="1.30934">
        <ele>550.97</ele>
        <time>2017-03-30T12:43:45Z</time>
      </trkpt>
      <trkpt lat="43.09139" lon="1.30931">
        <ele>550.97</ele>
        <time>2017-03-30T12:43:47Z</time>
      </trkpt>
      <trkpt lat="43.09139" lon="1.30925">
        <ele>550.49</ele>
        <time>2017-03-30T12:43:51Z</time>
      </trkpt>
      <trkpt lat="43.09142" lon="1.309">
        <ele>552.41</ele>
        <time>2017-03-30T12:44:07Z</time>
      </trkpt>
      <trkpt lat="43.0915" lon="1.30891">
        <ele>554.82</ele>
        <time>2017-03-30T12:44:18Z</time>
      </trkpt>
      <trkpt lat="43.09159" lon="1.30898">
        <ele>557.22</ele>
        <time>2017-03-30T12:44:32Z</time>
      </trkpt>
      <trkpt lat="43.09164" lon="1.30907">
        <ele>558.66</ele>
        <time>2017-03-30T12:44:46Z</time>
      </trkpt>
      <trkpt lat="43.09167" lon="1.30907">
        <ele>558.66</ele>
        <time>2017-03-30T12:44:51Z</time>
      </trkpt>
      <trkpt lat="43.0917" lon="1.30906">
        <ele>557.7</ele>
        <time>2017-03-30T12:44:53Z</time>
      </trkpt>
      <trkpt lat="43.09184" lon="1.30907">
        <ele>556.26</ele>
        <time>2017-03-30T12:45:06Z</time>
      </trkpt>
      <trkpt lat="43.09199" lon="1.30898">
        <ele>555.78</ele>
        <time>2017-03-30T12:45:22Z</time>
      </trkpt>
      <trkpt lat="43.092" lon="1.30886">
        <ele>557.22</ele>
        <time>2017-03-30T12:45:31Z</time>
      </trkpt>
      <trkpt lat="43.09201" lon="1.30865">
        <ele>559.14</ele>
        <time>2017-03-30T12:45:46Z</time>
      </trkpt>
      <trkpt lat="43.09202" lon="1.30843">
        <ele>560.11</ele>
        <time>2017-03-30T12:46:01Z</time>
      </trkpt>
      <trkpt lat="43.092" lon="1.3083">
        <ele>560.11</ele>
        <time>2017-03-30T12:46:09Z</time>
      </trkpt>
      <trkpt lat="43.09201" lon="1.30823">
        <ele>560.11</ele>
        <time>2017-03-30T12:46:13Z</time>
      </trkpt>
      <trkpt lat="43.09206" lon="1.30797">
        <ele>561.07</ele>
        <time>2017-03-30T12:46:28Z</time>
      </trkpt>
      <trkpt lat="43.09211" lon="1.30783">
        <ele>562.03</ele>
        <time>2017-03-30T12:46:39Z</time>
      </trkpt>
      <trkpt lat="43.09212" lon="1.30779">
        <ele>562.03</ele>
        <time>2017-03-30T12:46:41Z</time>
      </trkpt>
      <trkpt lat="43.09213" lon="1.30759">
        <ele>562.51</ele>
        <time>2017-03-30T12:46:55Z</time>
      </trkpt>
      <trkpt lat="43.09211" lon="1.30754">
        <ele>562.99</ele>
        <time>2017-03-30T12:47:17Z</time>
      </trkpt>
      <trkpt lat="43.0921" lon="1.30744">
        <ele>563.47</ele>
        <time>2017-03-30T12:47:41Z</time>
      </trkpt>
      <trkpt lat="43.09207" lon="1.30728">
        <ele>564.43</ele>
        <time>2017-03-30T12:47:54Z</time>
      </trkpt>
      <trkpt lat="43.09205" lon="1.30702">
        <ele>562.51</ele>
        <time>2017-03-30T12:48:25Z</time>
      </trkpt>
      <trkpt lat="43.09205" lon="1.30692">
        <ele>566.35</ele>
        <time>2017-03-30T12:54:36Z</time>
      </trkpt>
      <trkpt lat="43.09206" lon="1.30675">
        <ele>568.76</ele>
        <time>2017-03-30T12:54:50Z</time>
      </trkpt>
      <trkpt lat="43.09212" lon="1.30662">
        <ele>570.68</ele>
        <time>2017-03-30T12:55:01Z</time>
      </trkpt>
      <trkpt lat="43.09217" lon="1.30643">
        <ele>570.68</ele>
        <time>2017-03-30T12:55:16Z</time>
      </trkpt>
      <trkpt lat="43.09218" lon="1.30624">
        <ele>570.68</ele>
        <time>2017-03-30T12:55:29Z</time>
      </trkpt>
      <trkpt lat="43.09219" lon="1.3061">
        <ele>570.68</ele>
        <time>2017-03-30T12:55:39Z</time>
      </trkpt>
      <trkpt lat="43.09219" lon="1.30594">
        <ele>570.68</ele>
        <time>2017-03-30T12:55:50Z</time>
      </trkpt>
      <trkpt lat="43.0922" lon="1.30585">
        <ele>570.68</ele>
        <time>2017-03-30T12:55:57Z</time>
      </trkpt>
      <trkpt lat="43.09221" lon="1.30564">
        <ele>570.68</ele>
        <time>2017-03-30T12:56:11Z</time>
      </trkpt>
      <trkpt lat="43.09225" lon="1.30551">
        <ele>570.68</ele>
        <time>2017-03-30T12:56:28Z</time>
      </trkpt>
      <trkpt lat="43.09222" lon="1.30539">
        <ele>570.68</ele>
        <time>2017-03-30T12:56:42Z</time>
      </trkpt>
      <trkpt lat="43.09225" lon="1.30509">
        <ele>570.68</ele>
        <time>2017-03-30T12:57:03Z</time>
      </trkpt>
      <trkpt lat="43.09225" lon="1.30486">
        <ele>571.64</ele>
        <time>2017-03-30T12:57:18Z</time>
      </trkpt>
      <trkpt lat="43.09225" lon="1.3048">
        <ele>572.12</ele>
        <time>2017-03-30T12:57:22Z</time>
      </trkpt>
      <trkpt lat="43.09226" lon="1.30471">
        <ele>572.6</ele>
        <time>2017-03-30T12:57:28Z</time>
      </trkpt>
      <trkpt lat="43.09228" lon="1.30441">
        <ele>574.04</ele>
        <time>2017-03-30T12:57:46Z</time>
      </trkpt>
      <trkpt lat="43.0923" lon="1.30433">
        <ele>574.04</ele>
        <time>2017-03-30T12:58:01Z</time>
      </trkpt>
      <trkpt lat="43.09229" lon="1.30425">
        <ele>574.04</ele>
        <time>2017-03-30T12:58:18Z</time>
      </trkpt>
      <trkpt lat="43.0923" lon="1.30403">
        <ele>574.04</ele>
        <time>2017-03-30T12:58:33Z</time>
      </trkpt>
      <trkpt lat="43.09231" lon="1.30397">
        <ele>574.04</ele>
        <time>2017-03-30T12:58:36Z</time>
      </trkpt>
      <trkpt lat="43.09231" lon="1.30391">
        <ele>575.01</ele>
        <time>2017-03-30T12:58:40Z</time>
      </trkpt>
      <trkpt lat="43.09231" lon="1.30362">
        <ele>575.97</ele>
        <time>2017-03-30T12:58:57Z</time>
      </trkpt>
      <trkpt lat="43.09231" lon="1.30344">
        <ele>576.45</ele>
        <time>2017-03-30T12:59:08Z</time>
      </trkpt>
      <trkpt lat="43.09231" lon="1.30341">
        <ele>576.45</ele>
        <time>2017-03-30T12:59:10Z</time>
      </trkpt>
      <trkpt lat="43.09231" lon="1.30312">
        <ele>577.89</ele>
        <time>2017-03-30T12:59:28Z</time>
      </trkpt>
      <trkpt lat="43.0923" lon="1.30309">
        <ele>578.37</ele>
        <time>2017-03-30T12:59:30Z</time>
      </trkpt>
      <trkpt lat="43.09233" lon="1.30293">
        <ele>578.37</ele>
        <time>2017-03-30T12:59:40Z</time>
      </trkpt>
      <trkpt lat="43.09233" lon="1.30274">
        <ele>579.33</ele>
        <time>2017-03-30T12:59:51Z</time>
      </trkpt>
      <trkpt lat="43.09235" lon="1.30246">
        <ele>579.81</ele>
        <time>2017-03-30T13:00:08Z</time>
      </trkpt>
      <trkpt lat="43.09236" lon="1.30217">
        <ele>577.89</ele>
        <time>2017-03-30T13:00:25Z</time>
      </trkpt>
      <trkpt lat="43.09239" lon="1.30195">
        <ele>577.41</ele>
        <time>2017-03-30T13:00:39Z</time>
      </trkpt>
      <trkpt lat="43.09241" lon="1.30173">
        <ele>575.49</ele>
        <time>2017-03-30T13:00:53Z</time>
      </trkpt>
      <trkpt lat="43.09236" lon="1.3015">
        <ele>573.56</ele>
        <time>2017-03-30T13:01:08Z</time>
      </trkpt>
      <trkpt lat="43.09235" lon="1.30137">
        <ele>573.56</ele>
        <time>2017-03-30T13:01:16Z</time>
      </trkpt>
      <trkpt lat="43.09238" lon="1.30111">
        <ele>573.56</ele>
        <time>2017-03-30T13:01:32Z</time>
      </trkpt>
      <trkpt lat="43.09239" lon="1.3008">
        <ele>573.56</ele>
        <time>2017-03-30T13:01:50Z</time>
      </trkpt>
      <trkpt lat="43.09239" lon="1.30063">
        <ele>575.97</ele>
        <time>2017-03-30T13:02:01Z</time>
      </trkpt>
      <trkpt lat="43.09234" lon="1.30053">
        <ele>577.89</ele>
        <time>2017-03-30T13:02:14Z</time>
      </trkpt>
      <trkpt lat="43.09232" lon="1.30049">
        <ele>577.89</ele>
        <time>2017-03-30T13:02:17Z</time>
      </trkpt>
      <trkpt lat="43.09231" lon="1.30023">
        <ele>577.89</ele>
        <time>2017-03-30T13:02:33Z</time>
      </trkpt>
      <trkpt lat="43.09233" lon="1.30007">
        <ele>578.37</ele>
        <time>2017-03-30T13:02:43Z</time>
      </trkpt>
      <trkpt lat="43.09233" lon="1.29997">
        <ele>578.37</ele>
        <time>2017-03-30T13:02:49Z</time>
      </trkpt>
      <trkpt lat="43.09233" lon="1.29964">
        <ele>578.37</ele>
        <time>2017-03-30T13:03:08Z</time>
      </trkpt>
      <trkpt lat="43.09235" lon="1.2994">
        <ele>578.37</ele>
        <time>2017-03-30T13:03:23Z</time>
      </trkpt>
      <trkpt lat="43.09236" lon="1.29911">
        <ele>578.37</ele>
        <time>2017-03-30T13:03:40Z</time>
      </trkpt>
      <trkpt lat="43.09237" lon="1.29881">
        <ele>577.89</ele>
        <time>2017-03-30T13:03:58Z</time>
      </trkpt>
      <trkpt lat="43.09237" lon="1.29854">
        <ele>576.93</ele>
        <time>2017-03-30T13:04:14Z</time>
      </trkpt>
      <trkpt lat="43.09238" lon="1.29825">
        <ele>575.49</ele>
        <time>2017-03-30T13:04:32Z</time>
      </trkpt>
      <trkpt lat="43.09239" lon="1.29801">
        <ele>574.53</ele>
        <time>2017-03-30T13:04:47Z</time>
      </trkpt>
      <trkpt lat="43.09239" lon="1.29774">
        <ele>574.53</ele>
        <time>2017-03-30T13:05:03Z</time>
      </trkpt>
      <trkpt lat="43.09242" lon="1.29763">
        <ele>574.53</ele>
        <time>2017-03-30T13:05:20Z</time>
      </trkpt>
      <trkpt lat="43.09245" lon="1.29761">
        <ele>574.04</ele>
        <time>2017-03-30T13:05:35Z</time>
      </trkpt>
      <trkpt lat="43.09245" lon="1.29762">
        <ele>574.04</ele>
        <time>2017-03-30T13:05:59Z</time>
      </trkpt>
      <trkpt lat="43.09246" lon="1.29766">
        <ele>573.56</ele>
        <time>2017-03-30T13:06:39Z</time>
      </trkpt>
      <trkpt lat="43.09248" lon="1.2976">
        <ele>573.56</ele>
        <time>2017-03-30T13:07:06Z</time>
      </trkpt>
      <trkpt lat="43.09239" lon="1.29747">
        <ele>573.08</ele>
        <time>2017-03-30T13:07:21Z</time>
      </trkpt>
      <trkpt lat="43.09236" lon="1.29723">
        <ele>573.08</ele>
        <time>2017-03-30T13:07:36Z</time>
      </trkpt>
      <trkpt lat="43.09233" lon="1.29697">
        <ele>573.08</ele>
        <time>2017-03-30T13:07:52Z</time>
      </trkpt>
      <trkpt lat="43.09234" lon="1.29677">
        <ele>573.08</ele>
        <time>2017-03-30T13:08:07Z</time>
      </trkpt>
      <trkpt lat="43.09239" lon="1.29652">
        <ele>573.08</ele>
        <time>2017-03-30T13:08:21Z</time>
      </trkpt>
      <trkpt lat="43.09237" lon="1.29636">
        <ele>574.53</ele>
        <time>2017-03-30T13:08:32Z</time>
      </trkpt>
      <trkpt lat="43.09239" lon="1.29619">
        <ele>575.97</ele>
        <time>2017-03-30T13:08:43Z</time>
      </trkpt>
      <trkpt lat="43.0924" lon="1.29613">
        <ele>575.97</ele>
        <time>2017-03-30T13:08:47Z</time>
      </trkpt>
      <trkpt lat="43.09238" lon="1.29591">
        <ele>577.41</ele>
        <time>2017-03-30T13:09:02Z</time>
      </trkpt>
      <trkpt lat="43.09238" lon="1.29566">
        <ele>577.89</ele>
        <time>2017-03-30T13:09:17Z</time>
      </trkpt>
      <trkpt lat="43.09238" lon="1.29547">
        <ele>577.89</ele>
        <time>2017-03-30T13:09:30Z</time>
      </trkpt>
      <trkpt lat="43.0924" lon="1.29523">
        <ele>578.85</ele>
        <time>2017-03-30T13:09:43Z</time>
      </trkpt>
      <trkpt lat="43.09235" lon="1.29496">
        <ele>578.85</ele>
        <time>2017-03-30T13:10:01Z</time>
      </trkpt>
      <trkpt lat="43.09238" lon="1.29472">
        <ele>578.85</ele>
        <time>2017-03-30T13:10:15Z</time>
      </trkpt>
      <trkpt lat="43.09239" lon="1.29448">
        <ele>576.93</ele>
        <time>2017-03-30T13:10:29Z</time>
      </trkpt>
      <trkpt lat="43.09237" lon="1.2942">
        <ele>575.49</ele>
        <time>2017-03-30T13:10:45Z</time>
      </trkpt>
      <trkpt lat="43.09238" lon="1.29401">
        <ele>574.53</ele>
        <time>2017-03-30T13:10:57Z</time>
      </trkpt>
      <trkpt lat="43.0924" lon="1.29376">
        <ele>573.08</ele>
        <time>2017-03-30T13:11:12Z</time>
      </trkpt>
      <trkpt lat="43.09237" lon="1.29357">
        <ele>570.68</ele>
        <time>2017-03-30T13:11:26Z</time>
      </trkpt>
      <trkpt lat="43.09236" lon="1.29338">
        <ele>568.76</ele>
        <time>2017-03-30T13:11:39Z</time>
      </trkpt>
      <trkpt lat="43.09235" lon="1.29316">
        <ele>566.35</ele>
        <time>2017-03-30T13:11:52Z</time>
      </trkpt>
      <trkpt lat="43.09233" lon="1.29297">
        <ele>566.35</ele>
        <time>2017-03-30T13:12:06Z</time>
      </trkpt>
      <trkpt lat="43.09232" lon="1.2928">
        <ele>565.87</ele>
        <time>2017-03-30T13:12:21Z</time>
      </trkpt>
      <trkpt lat="43.09232" lon="1.29271">
        <ele>564.91</ele>
        <time>2017-03-30T13:12:40Z</time>
      </trkpt>
      <trkpt lat="43.0923" lon="1.29254">
        <ele>563.95</ele>
        <time>2017-03-30T13:12:53Z</time>
      </trkpt>
      <trkpt lat="43.09231" lon="1.29233">
        <ele>562.03</ele>
        <time>2017-03-30T13:13:08Z</time>
      </trkpt>
      <trkpt lat="43.0923" lon="1.29219">
        <ele>561.07</ele>
        <time>2017-03-30T13:13:23Z</time>
      </trkpt>
      <trkpt lat="43.0923" lon="1.29196">
        <ele>560.11</ele>
        <time>2017-03-30T13:13:37Z</time>
      </trkpt>
      <trkpt lat="43.0923" lon="1.29169">
        <ele>560.11</ele>
        <time>2017-03-30T13:13:53Z</time>
      </trkpt>
      <trkpt lat="43.09229" lon="1.29147">
        <ele>560.11</ele>
        <time>2017-03-30T13:14:07Z</time>
      </trkpt>
      <trkpt lat="43.09232" lon="1.29128">
        <ele>559.62</ele>
        <time>2017-03-30T13:14:19Z</time>
      </trkpt>
      <trkpt lat="43.09233" lon="1.29107">
        <ele>559.14</ele>
        <time>2017-03-30T13:14:34Z</time>
      </trkpt>
      <trkpt lat="43.09237" lon="1.29087">
        <ele>559.14</ele>
        <time>2017-03-30T13:14:44Z</time>
      </trkpt>
      <trkpt lat="43.09241" lon="1.29071">
        <ele>558.18</ele>
        <time>2017-03-30T13:14:57Z</time>
      </trkpt>
      <trkpt lat="43.09247" lon="1.29047">
        <ele>557.22</ele>
        <time>2017-03-30T13:15:11Z</time>
      </trkpt>
      <trkpt lat="43.09248" lon="1.29044">
        <ele>557.22</ele>
        <time>2017-03-30T13:15:13Z</time>
      </trkpt>
      <trkpt lat="43.09252" lon="1.29034">
        <ele>557.22</ele>
        <time>2017-03-30T13:15:25Z</time>
      </trkpt>
      <trkpt lat="43.09257" lon="1.29008">
        <ele>556.26</ele>
        <time>2017-03-30T13:15:39Z</time>
      </trkpt>
      <trkpt lat="43.09257" lon="1.28999">
        <ele>555.78</ele>
        <time>2017-03-30T13:15:53Z</time>
      </trkpt>
      <trkpt lat="43.09259" lon="1.28981">
        <ele>555.3</ele>
        <time>2017-03-30T13:16:05Z</time>
      </trkpt>
      <trkpt lat="43.09262" lon="1.28968">
        <ele>554.34</ele>
        <time>2017-03-30T13:16:17Z</time>
      </trkpt>
      <trkpt lat="43.09262" lon="1.28965">
        <ele>554.34</ele>
        <time>2017-03-30T13:16:20Z</time>
      </trkpt>
      <trkpt lat="43.09267" lon="1.28941">
        <ele>552.9</ele>
        <time>2017-03-30T13:16:34Z</time>
      </trkpt>
      <trkpt lat="43.09268" lon="1.28921">
        <ele>551.93</ele>
        <time>2017-03-30T13:16:48Z</time>
      </trkpt>
      <trkpt lat="43.09272" lon="1.28903">
        <ele>551.45</ele>
        <time>2017-03-30T13:17:00Z</time>
      </trkpt>
      <trkpt lat="43.09273" lon="1.28897">
        <ele>550.97</ele>
        <time>2017-03-30T13:17:04Z</time>
      </trkpt>
      <trkpt lat="43.09273" lon="1.28873">
        <ele>550.01</ele>
        <time>2017-03-30T13:17:18Z</time>
      </trkpt>
      <trkpt lat="43.09275" lon="1.28858">
        <ele>549.53</ele>
        <time>2017-03-30T13:17:29Z</time>
      </trkpt>
      <trkpt lat="43.09277" lon="1.28841">
        <ele>549.53</ele>
        <time>2017-03-30T13:17:41Z</time>
      </trkpt>
      <trkpt lat="43.09276" lon="1.28816">
        <ele>548.57</ele>
        <time>2017-03-30T13:17:55Z</time>
      </trkpt>
      <trkpt lat="43.09275" lon="1.288">
        <ele>548.09</ele>
        <time>2017-03-30T13:18:09Z</time>
      </trkpt>
      <trkpt lat="43.09276" lon="1.28796">
        <ele>548.09</ele>
        <time>2017-03-30T13:18:25Z</time>
      </trkpt>
      <trkpt lat="43.09268" lon="1.28794">
        <ele>551.45</ele>
        <time>2017-03-30T13:18:38Z</time>
      </trkpt>
      <trkpt lat="43.09259" lon="1.28797">
        <ele>553.86</ele>
        <time>2017-03-30T13:18:53Z</time>
      </trkpt>
      <trkpt lat="43.09251" lon="1.28805">
        <ele>557.22</ele>
        <time>2017-03-30T13:19:09Z</time>
      </trkpt>
      <trkpt lat="43.09243" lon="1.28811">
        <ele>560.11</ele>
        <time>2017-03-30T13:19:22Z</time>
      </trkpt>
      <trkpt lat="43.09239" lon="1.28818">
        <ele>560.11</ele>
        <time>2017-03-30T13:19:34Z</time>
      </trkpt>
      <trkpt lat="43.09227" lon="1.2882">
        <ele>562.03</ele>
        <time>2017-03-30T13:19:50Z</time>
      </trkpt>
      <trkpt lat="43.09224" lon="1.28819">
        <ele>562.51</ele>
        <time>2017-03-30T13:20:11Z</time>
      </trkpt>
      <trkpt lat="43.09212" lon="1.28821">
        <ele>562.99</ele>
        <time>2017-03-30T13:20:25Z</time>
      </trkpt>
      <trkpt lat="43.09199" lon="1.28825">
        <ele>565.39</ele>
        <time>2017-03-30T13:20:39Z</time>
      </trkpt>
      <trkpt lat="43.09182" lon="1.28836">
        <ele>568.28</ele>
        <time>2017-03-30T13:20:54Z</time>
      </trkpt>
      <trkpt lat="43.09178" lon="1.28839">
        <ele>569.24</ele>
        <time>2017-03-30T13:20:59Z</time>
      </trkpt>
      <trkpt lat="43.09171" lon="1.28844">
        <ele>570.2</ele>
        <time>2017-03-30T13:21:13Z</time>
      </trkpt>
      <trkpt lat="43.09157" lon="1.28857">
        <ele>569.24</ele>
        <time>2017-03-30T13:21:28Z</time>
      </trkpt>
      <trkpt lat="43.09156" lon="1.28858">
        <ele>569.24</ele>
        <time>2017-03-30T13:21:29Z</time>
      </trkpt>
      <trkpt lat="43.09143" lon="1.28865">
        <ele>568.28</ele>
        <time>2017-03-30T13:21:41Z</time>
      </trkpt>
      <trkpt lat="43.09135" lon="1.28863">
        <ele>567.32</ele>
        <time>2017-03-30T13:21:57Z</time>
      </trkpt>
      <trkpt lat="43.09124" lon="1.28864">
        <ele>566.83</ele>
        <time>2017-03-30T13:22:17Z</time>
      </trkpt>
      <trkpt lat="43.0911" lon="1.28861">
        <ele>565.39</ele>
        <time>2017-03-30T13:22:32Z</time>
      </trkpt>
      <trkpt lat="43.09109" lon="1.28862">
        <ele>565.39</ele>
        <time>2017-03-30T13:22:34Z</time>
      </trkpt>
      <trkpt lat="43.09107" lon="1.28863">
        <ele>564.43</ele>
        <time>2017-03-30T13:22:36Z</time>
      </trkpt>
      <trkpt lat="43.09098" lon="1.28874">
        <ele>562.99</ele>
        <time>2017-03-30T13:22:51Z</time>
      </trkpt>
      <trkpt lat="43.09091" lon="1.28883">
        <ele>560.59</ele>
        <time>2017-03-30T13:23:03Z</time>
      </trkpt>
      <trkpt lat="43.09087" lon="1.28887">
        <ele>560.11</ele>
        <time>2017-03-30T13:23:15Z</time>
      </trkpt>
      <trkpt lat="43.0908" lon="1.28893">
        <ele>559.14</ele>
        <time>2017-03-30T13:23:31Z</time>
      </trkpt>
      <trkpt lat="43.09072" lon="1.28901">
        <ele>557.7</ele>
        <time>2017-03-30T13:23:45Z</time>
      </trkpt>
      <trkpt lat="43.0907" lon="1.28903">
        <ele>557.7</ele>
        <time>2017-03-30T13:23:57Z</time>
      </trkpt>
      <trkpt lat="43.0907" lon="1.28903">
        <ele>557.7</ele>
        <time>2017-03-30T13:24:00Z</time>
      </trkpt>
      <trkpt lat="43.09065" lon="1.28906">
        <ele>557.22</ele>
        <time>2017-03-30T13:24:05Z</time>
      </trkpt>
      <trkpt lat="43.09053" lon="1.289">
        <ele>555.78</ele>
        <time>2017-03-30T13:24:17Z</time>
      </trkpt>
      <trkpt lat="43.09044" lon="1.28895">
        <ele>553.38</ele>
        <time>2017-03-30T13:24:28Z</time>
      </trkpt>
      <trkpt lat="43.09034" lon="1.28897">
        <ele>550.97</ele>
        <time>2017-03-30T13:24:39Z</time>
      </trkpt>
      <trkpt lat="43.09022" lon="1.28903">
        <ele>547.61</ele>
        <time>2017-03-30T13:24:52Z</time>
      </trkpt>
      <trkpt lat="43.09012" lon="1.28895">
        <ele>544.24</ele>
        <time>2017-03-30T13:25:07Z</time>
      </trkpt>
      <trkpt lat="43.09008" lon="1.28885">
        <ele>541.84</ele>
        <time>2017-03-30T13:25:15Z</time>
      </trkpt>
      <trkpt lat="43.08999" lon="1.28863">
        <ele>538.96</ele>
        <time>2017-03-30T13:25:31Z</time>
      </trkpt>
      <trkpt lat="43.08994" lon="1.28844">
        <ele>535.59</ele>
        <time>2017-03-30T13:25:45Z</time>
      </trkpt>
      <trkpt lat="43.08991" lon="1.28824">
        <ele>533.19</ele>
        <time>2017-03-30T13:25:59Z</time>
      </trkpt>
      <trkpt lat="43.08987" lon="1.28807">
        <ele>529.82</ele>
        <time>2017-03-30T13:26:13Z</time>
      </trkpt>
      <trkpt lat="43.0898" lon="1.28786">
        <ele>526.46</ele>
        <time>2017-03-30T13:26:28Z</time>
      </trkpt>
      <trkpt lat="43.08977" lon="1.28773">
        <ele>523.58</ele>
        <time>2017-03-30T13:26:40Z</time>
      </trkpt>
      <trkpt lat="43.08973" lon="1.28758">
        <ele>519.73</ele>
        <time>2017-03-30T13:26:54Z</time>
      </trkpt>
      <trkpt lat="43.08967" lon="1.28745">
        <ele>516.85</ele>
        <time>2017-03-30T13:27:07Z</time>
      </trkpt>
      <trkpt lat="43.08962" lon="1.2874">
        <ele>514.92</ele>
        <time>2017-03-30T13:27:14Z</time>
      </trkpt>
      <trkpt lat="43.08952" lon="1.28726">
        <ele>512.04</ele>
        <time>2017-03-30T13:27:29Z</time>
      </trkpt>
      <trkpt lat="43.08949" lon="1.28722">
        <ele>511.08</ele>
        <time>2017-03-30T13:27:33Z</time>
      </trkpt>
      <trkpt lat="43.08947" lon="1.28718">
        <ele>509.64</ele>
        <time>2017-03-30T13:27:56Z</time>
      </trkpt>
      <trkpt lat="43.08947" lon="1.28709">
        <ele>510.6</ele>
        <time>2017-03-30T13:28:02Z</time>
      </trkpt>
      <trkpt lat="43.08945" lon="1.28702">
        <ele>511.08</ele>
        <time>2017-03-30T13:28:15Z</time>
      </trkpt>
      <trkpt lat="43.08945" lon="1.28686">
        <ele>511.56</ele>
        <time>2017-03-30T13:29:11Z</time>
      </trkpt>
      <trkpt lat="43.08946" lon="1.28668">
        <ele>512.52</ele>
        <time>2017-03-30T13:29:24Z</time>
      </trkpt>
      <trkpt lat="43.08946" lon="1.28658">
        <ele>513</ele>
        <time>2017-03-30T13:29:31Z</time>
      </trkpt>
      <trkpt lat="43.08946" lon="1.28643">
        <ele>513.48</ele>
        <time>2017-03-30T13:29:41Z</time>
      </trkpt>
      <trkpt lat="43.08943" lon="1.28626">
        <ele>514.44</ele>
        <time>2017-03-30T13:29:52Z</time>
      </trkpt>
      <trkpt lat="43.08936" lon="1.28619">
        <ele>513</ele>
        <time>2017-03-30T13:30:06Z</time>
      </trkpt>
      <trkpt lat="43.08935" lon="1.28609">
        <ele>512.04</ele>
        <time>2017-03-30T13:30:21Z</time>
      </trkpt>
      <trkpt lat="43.08927" lon="1.28591">
        <ele>509.64</ele>
        <time>2017-03-30T13:30:37Z</time>
      </trkpt>
      <trkpt lat="43.0892" lon="1.28585">
        <ele>507.71</ele>
        <time>2017-03-30T13:30:46Z</time>
      </trkpt>
      <trkpt lat="43.0891" lon="1.28587">
        <ele>504.35</ele>
        <time>2017-03-30T13:31:01Z</time>
      </trkpt>
      <trkpt lat="43.08903" lon="1.28587">
        <ele>503.39</ele>
        <time>2017-03-30T13:31:29Z</time>
      </trkpt>
      <trkpt lat="43.08889" lon="1.28589">
        <ele>500.5</ele>
        <time>2017-03-30T13:31:44Z</time>
      </trkpt>
      <trkpt lat="43.0887" lon="1.2859">
        <ele>499.06</ele>
        <time>2017-03-30T13:32:00Z</time>
      </trkpt>
      <trkpt lat="43.08851" lon="1.28593">
        <ele>498.58</ele>
        <time>2017-03-30T13:32:16Z</time>
      </trkpt>
      <trkpt lat="43.08842" lon="1.28593">
        <ele>497.62</ele>
        <time>2017-03-30T13:32:25Z</time>
      </trkpt>
      <trkpt lat="43.08826" lon="1.28591">
        <ele>497.62</ele>
        <time>2017-03-30T13:32:39Z</time>
      </trkpt>
      <trkpt lat="43.08823" lon="1.28593">
        <ele>499.06</ele>
        <time>2017-03-30T13:32:44Z</time>
      </trkpt>
      <trkpt lat="43.08821" lon="1.28594">
        <ele>499.06</ele>
        <time>2017-03-30T13:32:55Z</time>
      </trkpt>
      <trkpt lat="43.08816" lon="1.28595">
        <ele>499.06</ele>
        <time>2017-03-30T13:33:15Z</time>
      </trkpt>
      <trkpt lat="43.08805" lon="1.2859">
        <ele>497.62</ele>
        <time>2017-03-30T13:33:28Z</time>
      </trkpt>
      <trkpt lat="43.08789" lon="1.28583">
        <ele>497.14</ele>
        <time>2017-03-30T13:33:43Z</time>
      </trkpt>
      <trkpt lat="43.08785" lon="1.2858">
        <ele>496.66</ele>
        <time>2017-03-30T13:33:48Z</time>
      </trkpt>
      <trkpt lat="43.08777" lon="1.28576">
        <ele>495.22</ele>
        <time>2017-03-30T13:34:04Z</time>
      </trkpt>
      <trkpt lat="43.08774" lon="1.2858">
        <ele>494.26</ele>
        <time>2017-03-30T13:34:24Z</time>
      </trkpt>
      <trkpt lat="43.08773" lon="1.28581">
        <ele>494.26</ele>
        <time>2017-03-30T13:34:30Z</time>
      </trkpt>
      <trkpt lat="43.08755" lon="1.28583">
        <ele>492.81</ele>
        <time>2017-03-30T13:34:46Z</time>
      </trkpt>
      <trkpt lat="43.08744" lon="1.28591">
        <ele>491.37</ele>
        <time>2017-03-30T13:34:59Z</time>
      </trkpt>
      <trkpt lat="43.08744" lon="1.28592">
        <ele>491.37</ele>
        <time>2017-03-30T13:35:00Z</time>
      </trkpt>
      <trkpt lat="43.08734" lon="1.28599">
        <ele>488.49</ele>
        <time>2017-03-30T13:35:12Z</time>
      </trkpt>
      <trkpt lat="43.08726" lon="1.28603">
        <ele>486.56</ele>
        <time>2017-03-30T13:35:23Z</time>
      </trkpt>
      <trkpt lat="43.08713" lon="1.28608">
        <ele>483.2</ele>
        <time>2017-03-30T13:35:37Z</time>
      </trkpt>
      <trkpt lat="43.08705" lon="1.2861">
        <ele>481.28</ele>
        <time>2017-03-30T13:35:45Z</time>
      </trkpt>
      <trkpt lat="43.08687" lon="1.28614">
        <ele>479.35</ele>
        <time>2017-03-30T13:36:01Z</time>
      </trkpt>
      <trkpt lat="43.08686" lon="1.28617">
        <ele>478.87</ele>
        <time>2017-03-30T13:36:04Z</time>
      </trkpt>
      <trkpt lat="43.08688" lon="1.28639">
        <ele>477.91</ele>
        <time>2017-03-30T13:36:17Z</time>
      </trkpt>
      <trkpt lat="43.08689" lon="1.28645">
        <ele>477.43</ele>
        <time>2017-03-30T13:36:21Z</time>
      </trkpt>
      <trkpt lat="43.0869" lon="1.28651">
        <ele>476.95</ele>
        <time>2017-03-30T13:36:25Z</time>
      </trkpt>
      <trkpt lat="43.08691" lon="1.28679">
        <ele>475.03</ele>
        <time>2017-03-30T13:36:42Z</time>
      </trkpt>
      <trkpt lat="43.08696" lon="1.28696">
        <ele>474.07</ele>
        <time>2017-03-30T13:36:52Z</time>
      </trkpt>
      <trkpt lat="43.08699" lon="1.28709">
        <ele>474.07</ele>
        <time>2017-03-30T13:37:00Z</time>
      </trkpt>
      <trkpt lat="43.0871" lon="1.28739">
        <ele>473.59</ele>
        <time>2017-03-30T13:37:19Z</time>
      </trkpt>
      <trkpt lat="43.08718" lon="1.28767">
        <ele>473.59</ele>
        <time>2017-03-30T13:37:37Z</time>
      </trkpt>
      <trkpt lat="43.08724" lon="1.28795">
        <ele>473.59</ele>
        <time>2017-03-30T13:37:55Z</time>
      </trkpt>
      <trkpt lat="43.08729" lon="1.28816">
        <ele>474.55</ele>
        <time>2017-03-30T13:38:09Z</time>
      </trkpt>
      <trkpt lat="43.08735" lon="1.28843">
        <ele>475.03</ele>
        <time>2017-03-30T13:38:26Z</time>
      </trkpt>
      <trkpt lat="43.08738" lon="1.28854">
        <ele>475.03</ele>
        <time>2017-03-30T13:38:34Z</time>
      </trkpt>
      <trkpt lat="43.08736" lon="1.28864">
        <ele>474.07</ele>
        <time>2017-03-30T13:38:41Z</time>
      </trkpt>
      <trkpt lat="43.08735" lon="1.28866">
        <ele>473.59</ele>
        <time>2017-03-30T13:38:42Z</time>
      </trkpt>
      <trkpt lat="43.08733" lon="1.28881">
        <ele>470.22</ele>
        <time>2017-03-30T13:38:56Z</time>
      </trkpt>
      <trkpt lat="43.08733" lon="1.28881">
        <ele>469.74</ele>
        <time>2017-03-30T13:38:58Z</time>
      </trkpt>
      <trkpt lat="43.08731" lon="1.28887">
        <ele>470.7</ele>
        <time>2017-03-30T13:39:40Z</time>
      </trkpt>
      <trkpt lat="43.08724" lon="1.28916">
        <ele>468.3</ele>
        <time>2017-03-30T13:39:59Z</time>
      </trkpt>
      <trkpt lat="43.08717" lon="1.28942">
        <ele>466.38</ele>
        <time>2017-03-30T13:40:15Z</time>
      </trkpt>
      <trkpt lat="43.08709" lon="1.28964">
        <ele>466.38</ele>
        <time>2017-03-30T13:40:30Z</time>
      </trkpt>
      <trkpt lat="43.08702" lon="1.28984">
        <ele>465.9</ele>
        <time>2017-03-30T13:40:44Z</time>
      </trkpt>
      <trkpt lat="43.08695" lon="1.29004">
        <ele>467.34</ele>
        <time>2017-03-30T13:40:59Z</time>
      </trkpt>
      <trkpt lat="43.0869" lon="1.29027">
        <ele>467.82</ele>
        <time>2017-03-30T13:41:15Z</time>
      </trkpt>
      <trkpt lat="43.0869" lon="1.29033">
        <ele>468.3</ele>
        <time>2017-03-30T13:41:24Z</time>
      </trkpt>
      <trkpt lat="43.08689" lon="1.29037">
        <ele>468.3</ele>
        <time>2017-03-30T13:41:29Z</time>
      </trkpt>
      <trkpt lat="43.08683" lon="1.29064">
        <ele>468.3</ele>
        <time>2017-03-30T13:41:45Z</time>
      </trkpt>
      <trkpt lat="43.08679" lon="1.29091">
        <ele>466.86</ele>
        <time>2017-03-30T13:42:02Z</time>
      </trkpt>
      <trkpt lat="43.08673" lon="1.29117">
        <ele>465.9</ele>
        <time>2017-03-30T13:42:18Z</time>
      </trkpt>
      <trkpt lat="43.08671" lon="1.29126">
        <ele>464.93</ele>
        <time>2017-03-30T13:42:24Z</time>
      </trkpt>
      <trkpt lat="43.08666" lon="1.29149">
        <ele>462.53</ele>
        <time>2017-03-30T13:42:41Z</time>
      </trkpt>
      <trkpt lat="43.0866" lon="1.29171">
        <ele>461.57</ele>
        <time>2017-03-30T13:42:56Z</time>
      </trkpt>
      <trkpt lat="43.08659" lon="1.29171">
        <ele>461.09</ele>
        <time>2017-03-30T13:43:23Z</time>
      </trkpt>
      <trkpt lat="43.08658" lon="1.29177">
        <ele>461.09</ele>
        <time>2017-03-30T13:43:35Z</time>
      </trkpt>
      <trkpt lat="43.08656" lon="1.29182">
        <ele>460.61</ele>
        <time>2017-03-30T13:43:39Z</time>
      </trkpt>
      <trkpt lat="43.08648" lon="1.29202">
        <ele>457.24</ele>
        <time>2017-03-30T13:43:55Z</time>
      </trkpt>
      <trkpt lat="43.08641" lon="1.2922">
        <ele>454.84</ele>
        <time>2017-03-30T13:44:10Z</time>
      </trkpt>
      <trkpt lat="43.08638" lon="1.29229">
        <ele>454.36</ele>
        <time>2017-03-30T13:44:37Z</time>
      </trkpt>
      <trkpt lat="43.08624" lon="1.29254">
        <ele>451.96</ele>
        <time>2017-03-30T13:44:52Z</time>
      </trkpt>
      <trkpt lat="43.08613" lon="1.29273">
        <ele>449.55</ele>
        <time>2017-03-30T13:45:08Z</time>
      </trkpt>
      <trkpt lat="43.08607" lon="1.2928">
        <ele>448.11</ele>
        <time>2017-03-30T13:45:17Z</time>
      </trkpt>
      <trkpt lat="43.08593" lon="1.29298">
        <ele>445.71</ele>
        <time>2017-03-30T13:45:33Z</time>
      </trkpt>
      <trkpt lat="43.08587" lon="1.2931">
        <ele>443.31</ele>
        <time>2017-03-30T13:45:41Z</time>
      </trkpt>
      <trkpt lat="43.08583" lon="1.29318">
        <ele>442.34</ele>
        <time>2017-03-30T13:45:46Z</time>
      </trkpt>
      <trkpt lat="43.08573" lon="1.29329">
        <ele>441.38</ele>
        <time>2017-03-30T13:46:00Z</time>
      </trkpt>
      <trkpt lat="43.08571" lon="1.29333">
        <ele>439.46</ele>
        <time>2017-03-30T13:47:43Z</time>
      </trkpt>
      <trkpt lat="43.08572" lon="1.29346">
        <ele>441.38</ele>
        <time>2017-03-30T13:47:58Z</time>
      </trkpt>
      <trkpt lat="43.08572" lon="1.29362">
        <ele>442.82</ele>
        <time>2017-03-30T13:48:10Z</time>
      </trkpt>
      <trkpt lat="43.08562" lon="1.29384">
        <ele>444.27</ele>
        <time>2017-03-30T13:48:25Z</time>
      </trkpt>
      <trkpt lat="43.08554" lon="1.29398">
        <ele>445.23</ele>
        <time>2017-03-30T13:48:40Z</time>
      </trkpt>
      <trkpt lat="43.08545" lon="1.29419">
        <ele>446.19</ele>
        <time>2017-03-30T13:48:53Z</time>
      </trkpt>
      <trkpt lat="43.08533" lon="1.29448">
        <ele>446.19</ele>
        <time>2017-03-30T13:49:11Z</time>
      </trkpt>
      <trkpt lat="43.08524" lon="1.29465">
        <ele>446.19</ele>
        <time>2017-03-30T13:49:23Z</time>
      </trkpt>
      <trkpt lat="43.08516" lon="1.29479">
        <ele>446.19</ele>
        <time>2017-03-30T13:49:34Z</time>
      </trkpt>
      <trkpt lat="43.08514" lon="1.29486">
        <ele>444.75</ele>
        <time>2017-03-30T13:49:38Z</time>
      </trkpt>
      <trkpt lat="43.08513" lon="1.29491">
        <ele>444.27</ele>
        <time>2017-03-30T13:49:50Z</time>
      </trkpt>
      <trkpt lat="43.08502" lon="1.29515">
        <ele>442.82</ele>
        <time>2017-03-30T13:50:06Z</time>
      </trkpt>
      <trkpt lat="43.08494" lon="1.29539">
        <ele>441.86</ele>
        <time>2017-03-30T13:50:20Z</time>
      </trkpt>
      <trkpt lat="43.08486" lon="1.29558">
        <ele>440.9</ele>
        <time>2017-03-30T13:50:34Z</time>
      </trkpt>
      <trkpt lat="43.08476" lon="1.2958">
        <ele>438.5</ele>
        <time>2017-03-30T13:50:49Z</time>
      </trkpt>
      <trkpt lat="43.08471" lon="1.29592">
        <ele>437.06</ele>
        <time>2017-03-30T13:50:56Z</time>
      </trkpt>
      <trkpt lat="43.08463" lon="1.29612">
        <ele>436.1</ele>
        <time>2017-03-30T13:51:10Z</time>
      </trkpt>
      <trkpt lat="43.08458" lon="1.29625">
        <ele>435.13</ele>
        <time>2017-03-30T13:51:42Z</time>
      </trkpt>
      <trkpt lat="43.08455" lon="1.29632">
        <ele>434.65</ele>
        <time>2017-03-30T13:51:46Z</time>
      </trkpt>
      <trkpt lat="43.08449" lon="1.2965">
        <ele>434.17</ele>
        <time>2017-03-30T13:52:02Z</time>
      </trkpt>
      <trkpt lat="43.08444" lon="1.29657">
        <ele>432.73</ele>
        <time>2017-03-30T13:52:18Z</time>
      </trkpt>
      <trkpt lat="43.08433" lon="1.29685">
        <ele>432.73</ele>
        <time>2017-03-30T13:52:35Z</time>
      </trkpt>
      <trkpt lat="43.08422" lon="1.29711">
        <ele>432.25</ele>
        <time>2017-03-30T13:52:52Z</time>
      </trkpt>
      <trkpt lat="43.08412" lon="1.29733">
        <ele>433.21</ele>
        <time>2017-03-30T13:53:07Z</time>
      </trkpt>
      <trkpt lat="43.08402" lon="1.29756">
        <ele>433.21</ele>
        <time>2017-03-30T13:53:22Z</time>
      </trkpt>
      <trkpt lat="43.08397" lon="1.29772">
        <ele>431.77</ele>
        <time>2017-03-30T13:53:32Z</time>
      </trkpt>
      <trkpt lat="43.08387" lon="1.29789">
        <ele>431.77</ele>
        <time>2017-03-30T13:53:45Z</time>
      </trkpt>
      <trkpt lat="43.08377" lon="1.29812">
        <ele>431.77</ele>
        <time>2017-03-30T13:54:01Z</time>
      </trkpt>
      <trkpt lat="43.08376" lon="1.29815">
        <ele>433.21</ele>
        <time>2017-03-30T13:54:03Z</time>
      </trkpt>
      <trkpt lat="43.08365" lon="1.29838">
        <ele>433.21</ele>
        <time>2017-03-30T13:54:19Z</time>
      </trkpt>
      <trkpt lat="43.08355" lon="1.2986">
        <ele>434.17</ele>
        <time>2017-03-30T13:54:36Z</time>
      </trkpt>
      <trkpt lat="43.08348" lon="1.29877">
        <ele>435.13</ele>
        <time>2017-03-30T13:54:48Z</time>
      </trkpt>
      <trkpt lat="43.08343" lon="1.29882">
        <ele>435.61</ele>
        <time>2017-03-30T13:55:03Z</time>
      </trkpt>
      <trkpt lat="43.08336" lon="1.29899">
        <ele>435.61</ele>
        <time>2017-03-30T13:55:15Z</time>
      </trkpt>
      <trkpt lat="43.08333" lon="1.2991">
        <ele>434.17</ele>
        <time>2017-03-30T13:55:22Z</time>
      </trkpt>
      <trkpt lat="43.08322" lon="1.29931">
        <ele>433.69</ele>
        <time>2017-03-30T13:55:37Z</time>
      </trkpt>
      <trkpt lat="43.08312" lon="1.29958">
        <ele>433.21</ele>
        <time>2017-03-30T13:55:54Z</time>
      </trkpt>
      <trkpt lat="43.08301" lon="1.29985">
        <ele>433.21</ele>
        <time>2017-03-30T13:56:12Z</time>
      </trkpt>
      <trkpt lat="43.08288" lon="1.30013">
        <ele>433.21</ele>
        <time>2017-03-30T13:56:31Z</time>
      </trkpt>
      <trkpt lat="43.08278" lon="1.30036">
        <ele>432.73</ele>
        <time>2017-03-30T13:56:46Z</time>
      </trkpt>
      <trkpt lat="43.08273" lon="1.30051">
        <ele>432.25</ele>
        <time>2017-03-30T13:56:55Z</time>
      </trkpt>
      <trkpt lat="43.08263" lon="1.30077">
        <ele>432.25</ele>
        <time>2017-03-30T13:57:13Z</time>
      </trkpt>
      <trkpt lat="43.08255" lon="1.30102">
        <ele>430.81</ele>
        <time>2017-03-30T13:57:29Z</time>
      </trkpt>
      <trkpt lat="43.08249" lon="1.30127">
        <ele>430.33</ele>
        <time>2017-03-30T13:57:45Z</time>
      </trkpt>
      <trkpt lat="43.08244" lon="1.30149">
        <ele>428.4</ele>
        <time>2017-03-30T13:57:59Z</time>
      </trkpt>
      <trkpt lat="43.08239" lon="1.30183">
        <ele>426.96</ele>
        <time>2017-03-30T13:58:19Z</time>
      </trkpt>
      <trkpt lat="43.08235" lon="1.30209">
        <ele>425.52</ele>
        <time>2017-03-30T13:58:36Z</time>
      </trkpt>
      <trkpt lat="43.08228" lon="1.30229">
        <ele>423.6</ele>
        <time>2017-03-30T13:58:50Z</time>
      </trkpt>
      <trkpt lat="43.08219" lon="1.30252">
        <ele>421.19</ele>
        <time>2017-03-30T13:59:05Z</time>
      </trkpt>
      <trkpt lat="43.08212" lon="1.30278">
        <ele>419.75</ele>
        <time>2017-03-30T13:59:22Z</time>
      </trkpt>
      <trkpt lat="43.08204" lon="1.30308">
        <ele>418.79</ele>
        <time>2017-03-30T13:59:40Z</time>
      </trkpt>
      <trkpt lat="43.08199" lon="1.30335">
        <ele>416.39</ele>
        <time>2017-03-30T13:59:56Z</time>
      </trkpt>
      <trkpt lat="43.08197" lon="1.3034">
        <ele>415.91</ele>
        <time>2017-03-30T14:00:11Z</time>
      </trkpt>
      <trkpt lat="43.08197" lon="1.3034">
        <ele>415.91</ele>
        <time>2017-03-30T14:00:12Z</time>
      </trkpt>
      <trkpt lat="43.08197" lon="1.30347">
        <ele>415.43</ele>
        <time>2017-03-30T14:00:17Z</time>
      </trkpt>
      <trkpt lat="43.08192" lon="1.30377">
        <ele>413.5</ele>
        <time>2017-03-30T14:00:34Z</time>
      </trkpt>
      <trkpt lat="43.08192" lon="1.30378">
        <ele>413.5</ele>
        <time>2017-03-30T14:00:35Z</time>
      </trkpt>
      <trkpt lat="43.08188" lon="1.30402">
        <ele>411.58</ele>
        <time>2017-03-30T14:00:52Z</time>
      </trkpt>
      <trkpt lat="43.08187" lon="1.30414">
        <ele>410.62</ele>
        <time>2017-03-30T14:01:11Z</time>
      </trkpt>
      <trkpt lat="43.08187" lon="1.30419">
        <ele>410.62</ele>
        <time>2017-03-30T14:01:21Z</time>
      </trkpt>
      <trkpt lat="43.08188" lon="1.30448">
        <ele>410.14</ele>
        <time>2017-03-30T14:01:38Z</time>
      </trkpt>
      <trkpt lat="43.08188" lon="1.30475">
        <ele>409.66</ele>
        <time>2017-03-30T14:01:55Z</time>
      </trkpt>
      <trkpt lat="43.08188" lon="1.30483">
        <ele>408.7</ele>
        <time>2017-03-30T14:02:10Z</time>
      </trkpt>
      <trkpt lat="43.08188" lon="1.30485">
        <ele>408.7</ele>
        <time>2017-03-30T14:02:11Z</time>
      </trkpt>
      <trkpt lat="43.0819" lon="1.30514">
        <ele>408.7</ele>
        <time>2017-03-30T14:02:28Z</time>
      </trkpt>
      <trkpt lat="43.0819" lon="1.30518">
        <ele>408.7</ele>
        <time>2017-03-30T14:02:30Z</time>
      </trkpt>
      <trkpt lat="43.08193" lon="1.30534">
        <ele>408.7</ele>
        <time>2017-03-30T14:02:45Z</time>
      </trkpt>
      <trkpt lat="43.08193" lon="1.30535">
        <ele>409.66</ele>
        <time>2017-03-30T14:02:47Z</time>
      </trkpt>
      <trkpt lat="43.08196" lon="1.3055">
        <ele>409.66</ele>
        <time>2017-03-30T14:03:08Z</time>
      </trkpt>
      <trkpt lat="43.08198" lon="1.30577">
        <ele>409.66</ele>
        <time>2017-03-30T14:03:25Z</time>
      </trkpt>
      <trkpt lat="43.08197" lon="1.30604">
        <ele>410.62</ele>
        <time>2017-03-30T14:03:41Z</time>
      </trkpt>
      <trkpt lat="43.08193" lon="1.30629">
        <ele>410.62</ele>
        <time>2017-03-30T14:03:57Z</time>
      </trkpt>
      <trkpt lat="43.0819" lon="1.30646">
        <ele>411.58</ele>
        <time>2017-03-30T14:04:27Z</time>
      </trkpt>
      <trkpt lat="43.08188" lon="1.30664">
        <ele>411.58</ele>
        <time>2017-03-30T14:04:43Z</time>
      </trkpt>
      <trkpt lat="43.08182" lon="1.30679">
        <ele>411.58</ele>
        <time>2017-03-30T14:05:04Z</time>
      </trkpt>
      <trkpt lat="43.08178" lon="1.30691">
        <ele>410.14</ele>
        <time>2017-03-30T14:05:13Z</time>
      </trkpt>
      <trkpt lat="43.08178" lon="1.30709">
        <ele>409.18</ele>
        <time>2017-03-30T14:05:26Z</time>
      </trkpt>
      <trkpt lat="43.08179" lon="1.30712">
        <ele>410.62</ele>
        <time>2017-03-30T14:05:28Z</time>
      </trkpt>
      <trkpt lat="43.0818" lon="1.30714">
        <ele>410.62</ele>
        <time>2017-03-30T14:05:29Z</time>
      </trkpt>
      <trkpt lat="43.08182" lon="1.30717">
        <ele>410.62</ele>
        <time>2017-03-30T14:05:36Z</time>
      </trkpt>
      <trkpt lat="43.08183" lon="1.30718">
        <ele>410.62</ele>
        <time>2017-03-30T14:05:37Z</time>
      </trkpt>
      <trkpt lat="43.08184" lon="1.30722">
        <ele>410.62</ele>
        <time>2017-03-30T14:05:41Z</time>
      </trkpt>
      <trkpt lat="43.08184" lon="1.30725">
        <ele>410.62</ele>
        <time>2017-03-30T14:05:42Z</time>
      </trkpt>
      <trkpt lat="43.08185" lon="1.30727">
        <ele>410.62</ele>
        <time>2017-03-30T14:05:43Z</time>
      </trkpt>
      <trkpt lat="43.08186" lon="1.30729">
        <ele>410.62</ele>
        <time>2017-03-30T14:05:44Z</time>
      </trkpt>
      <trkpt lat="43.08193" lon="1.3074">
        <ele>409.18</ele>
        <time>2017-03-30T14:05:54Z</time>
      </trkpt>
      <trkpt lat="43.08202" lon="1.30762">
        <ele>406.29</ele>
        <time>2017-03-30T14:06:10Z</time>
      </trkpt>
      <trkpt lat="43.08205" lon="1.30786">
        <ele>403.41</ele>
        <time>2017-03-30T14:06:24Z</time>
      </trkpt>
      <trkpt lat="43.08205" lon="1.30816">
        <ele>401.97</ele>
        <time>2017-03-30T14:06:42Z</time>
      </trkpt>
      <trkpt lat="43.08205" lon="1.30819">
        <ele>401.49</ele>
        <time>2017-03-30T14:06:44Z</time>
      </trkpt>
      <trkpt lat="43.08205" lon="1.3082">
        <ele>402.93</ele>
        <time>2017-03-30T14:06:45Z</time>
      </trkpt>
      <trkpt lat="43.08204" lon="1.30825">
        <ele>401.49</ele>
        <time>2017-03-30T14:06:48Z</time>
      </trkpt>
      <trkpt lat="43.08204" lon="1.30827">
        <ele>401.49</ele>
        <time>2017-03-30T14:06:49Z</time>
      </trkpt>
      <trkpt lat="43.08204" lon="1.30835">
        <ele>401.01</ele>
        <time>2017-03-30T14:07:06Z</time>
      </trkpt>
      <trkpt lat="43.08207" lon="1.30837">
        <ele>401.01</ele>
        <time>2017-03-30T14:07:39Z</time>
      </trkpt>
      <trkpt lat="43.08209" lon="1.30843">
        <ele>401.01</ele>
        <time>2017-03-30T14:08:02Z</time>
      </trkpt>
      <trkpt lat="43.08206" lon="1.30849">
        <ele>400.05</ele>
        <time>2017-03-30T14:08:22Z</time>
      </trkpt>
      <trkpt lat="43.08203" lon="1.30868">
        <ele>398.12</ele>
        <time>2017-03-30T14:08:37Z</time>
      </trkpt>
      <trkpt lat="43.082" lon="1.30884">
        <ele>397.16</ele>
        <time>2017-03-30T14:08:52Z</time>
      </trkpt>
      <trkpt lat="43.08198" lon="1.30915">
        <ele>395.72</ele>
        <time>2017-03-30T14:09:10Z</time>
      </trkpt>
      <trkpt lat="43.08198" lon="1.30943">
        <ele>395.24</ele>
        <time>2017-03-30T14:09:25Z</time>
      </trkpt>
      <trkpt lat="43.08197" lon="1.30974">
        <ele>394.76</ele>
        <time>2017-03-30T14:09:45Z</time>
      </trkpt>
      <trkpt lat="43.08191" lon="1.31023">
        <ele>393.32</ele>
        <time>2017-03-30T14:10:52Z</time>
      </trkpt>
      <trkpt lat="43.08191" lon="1.31025">
        <ele>393.32</ele>
        <time>2017-03-30T14:10:54Z</time>
      </trkpt>
      <trkpt lat="43.08191" lon="1.31026">
        <ele>393.32</ele>
        <time>2017-03-30T14:10:55Z</time>
      </trkpt>
      <trkpt lat="43.08188" lon="1.31042">
        <ele>392.84</ele>
        <time>2017-03-30T14:12:39Z</time>
      </trkpt>
      <trkpt lat="43.08187" lon="1.31056">
        <ele>392.84</ele>
        <time>2017-03-30T14:12:53Z</time>
      </trkpt>
      <trkpt lat="43.08181" lon="1.31081">
        <ele>390.91</ele>
        <time>2017-03-30T14:13:09Z</time>
      </trkpt>
      <trkpt lat="43.0818" lon="1.31088">
        <ele>388.99</ele>
        <time>2017-03-30T14:13:30Z</time>
      </trkpt>
      <trkpt lat="43.08177" lon="1.31113">
        <ele>388.51</ele>
        <time>2017-03-30T14:13:45Z</time>
      </trkpt>
      <trkpt lat="43.08172" lon="1.31142">
        <ele>387.07</ele>
        <time>2017-03-30T14:14:04Z</time>
      </trkpt>
      <trkpt lat="43.08172" lon="1.31144">
        <ele>387.07</ele>
        <time>2017-03-30T14:14:05Z</time>
      </trkpt>
      <trkpt lat="43.08171" lon="1.31145">
        <ele>387.07</ele>
        <time>2017-03-30T14:14:06Z</time>
      </trkpt>
      <trkpt lat="43.08167" lon="1.31157">
        <ele>386.11</ele>
        <time>2017-03-30T14:14:17Z</time>
      </trkpt>
      <trkpt lat="43.0816" lon="1.31182">
        <ele>384.66</ele>
        <time>2017-03-30T14:14:33Z</time>
      </trkpt>
      <trkpt lat="43.08152" lon="1.31214">
        <ele>383.7</ele>
        <time>2017-03-30T14:14:53Z</time>
      </trkpt>
      <trkpt lat="43.0814" lon="1.31245">
        <ele>381.78</ele>
        <time>2017-03-30T14:15:13Z</time>
      </trkpt>
      <trkpt lat="43.08127" lon="1.31269">
        <ele>380.82</ele>
        <time>2017-03-30T14:15:30Z</time>
      </trkpt>
      <trkpt lat="43.08112" lon="1.31293">
        <ele>379.86</ele>
        <time>2017-03-30T14:15:47Z</time>
      </trkpt>
      <trkpt lat="43.08098" lon="1.31318">
        <ele>379.38</ele>
        <time>2017-03-30T14:16:06Z</time>
      </trkpt>
      <trkpt lat="43.08089" lon="1.31344">
        <ele>378.9</ele>
        <time>2017-03-30T14:16:22Z</time>
      </trkpt>
      <trkpt lat="43.08087" lon="1.31373">
        <ele>380.82</ele>
        <time>2017-03-30T14:16:40Z</time>
      </trkpt>
      <trkpt lat="43.08084" lon="1.31385">
        <ele>378.9</ele>
        <time>2017-03-30T14:16:47Z</time>
      </trkpt>
      <trkpt lat="43.08077" lon="1.3141">
        <ele>380.34</ele>
        <time>2017-03-30T14:17:02Z</time>
      </trkpt>
      <trkpt lat="43.08075" lon="1.31422">
        <ele>378.9</ele>
        <time>2017-03-30T14:17:09Z</time>
      </trkpt>
      <trkpt lat="43.08071" lon="1.31457">
        <ele>377.45</ele>
        <time>2017-03-30T14:17:36Z</time>
      </trkpt>
      <trkpt lat="43.0807" lon="1.31462">
        <ele>377.45</ele>
        <time>2017-03-30T14:17:39Z</time>
      </trkpt>
      <trkpt lat="43.0807" lon="1.31464">
        <ele>377.45</ele>
        <time>2017-03-30T14:17:40Z</time>
      </trkpt>
      <trkpt lat="43.08068" lon="1.31491">
        <ele>377.45</ele>
        <time>2017-03-30T14:17:57Z</time>
      </trkpt>
      <trkpt lat="43.08066" lon="1.31525">
        <ele>376.49</ele>
        <time>2017-03-30T14:18:17Z</time>
      </trkpt>
      <trkpt lat="43.08064" lon="1.31555">
        <ele>376.49</ele>
        <time>2017-03-30T14:18:36Z</time>
      </trkpt>
      <trkpt lat="43.08064" lon="1.31578">
        <ele>376.49</ele>
        <time>2017-03-30T14:18:49Z</time>
      </trkpt>
      <trkpt lat="43.08065" lon="1.31596">
        <ele>376.49</ele>
        <time>2017-03-30T14:19:00Z</time>
      </trkpt>
      <trkpt lat="43.08064" lon="1.31619">
        <ele>376.49</ele>
        <time>2017-03-30T14:19:11Z</time>
      </trkpt>
      <trkpt lat="43.08066" lon="1.31636">
        <ele>376.01</ele>
        <time>2017-03-30T14:19:22Z</time>
      </trkpt>
      <trkpt lat="43.08066" lon="1.31639">
        <ele>376.01</ele>
        <time>2017-03-30T14:19:23Z</time>
      </trkpt>
      <trkpt lat="43.08066" lon="1.31642">
        <ele>376.01</ele>
        <time>2017-03-30T14:19:24Z</time>
      </trkpt>
      <trkpt lat="43.08066" lon="1.31644">
        <ele>376.01</ele>
        <time>2017-03-30T14:19:25Z</time>
      </trkpt>
      <trkpt lat="43.08067" lon="1.31648">
        <ele>376.01</ele>
        <time>2017-03-30T14:19:28Z</time>
      </trkpt>
      <trkpt lat="43.08067" lon="1.31667">
        <ele>375.53</ele>
        <time>2017-03-30T14:19:38Z</time>
      </trkpt>
      <trkpt lat="43.08068" lon="1.31685">
        <ele>375.05</ele>
        <time>2017-03-30T14:19:49Z</time>
      </trkpt>
      <trkpt lat="43.08069" lon="1.31707">
        <ele>375.05</ele>
        <time>2017-03-30T14:20:01Z</time>
      </trkpt>
      <trkpt lat="43.0807" lon="1.31711">
        <ele>375.05</ele>
        <time>2017-03-30T14:20:04Z</time>
      </trkpt>
      <trkpt lat="43.0807" lon="1.3173">
        <ele>375.05</ele>
        <time>2017-03-30T14:20:14Z</time>
      </trkpt>
      <trkpt lat="43.08072" lon="1.31747">
        <ele>374.57</ele>
        <time>2017-03-30T14:20:24Z</time>
      </trkpt>
      <trkpt lat="43.08072" lon="1.3175">
        <ele>374.57</ele>
        <time>2017-03-30T14:20:26Z</time>
      </trkpt>
      <trkpt lat="43.08071" lon="1.31752">
        <ele>374.57</ele>
        <time>2017-03-30T14:20:27Z</time>
      </trkpt>
      <trkpt lat="43.08073" lon="1.31773">
        <ele>374.09</ele>
        <time>2017-03-30T14:20:39Z</time>
      </trkpt>
      <trkpt lat="43.08073" lon="1.31798">
        <ele>373.61</ele>
        <time>2017-03-30T14:20:55Z</time>
      </trkpt>
      <trkpt lat="43.08072" lon="1.31807">
        <ele>373.61</ele>
        <time>2017-03-30T14:21:01Z</time>
      </trkpt>
      <trkpt lat="43.08072" lon="1.31809">
        <ele>373.61</ele>
        <time>2017-03-30T14:21:02Z</time>
      </trkpt>
      <trkpt lat="43.08072" lon="1.31812">
        <ele>373.61</ele>
        <time>2017-03-30T14:21:03Z</time>
      </trkpt>
      <trkpt lat="43.08072" lon="1.31827">
        <ele>373.61</ele>
        <time>2017-03-30T14:21:12Z</time>
      </trkpt>
      <trkpt lat="43.08072" lon="1.31843">
        <ele>373.61</ele>
        <time>2017-03-30T14:21:22Z</time>
      </trkpt>
      <trkpt lat="43.08072" lon="1.31855">
        <ele>373.13</ele>
        <time>2017-03-30T14:21:29Z</time>
      </trkpt>
      <trkpt lat="43.08069" lon="1.31882">
        <ele>373.13</ele>
        <time>2017-03-30T14:21:45Z</time>
      </trkpt>
      <trkpt lat="43.08073" lon="1.31899">
        <ele>373.13</ele>
        <time>2017-03-30T14:21:59Z</time>
      </trkpt>
      <trkpt lat="43.0808" lon="1.31922">
        <ele>375.05</ele>
        <time>2017-03-30T14:22:14Z</time>
      </trkpt>
      <trkpt lat="43.08083" lon="1.31934">
        <ele>375.53</ele>
        <time>2017-03-30T14:22:26Z</time>
      </trkpt>
      <trkpt lat="43.08085" lon="1.31938">
        <ele>375.53</ele>
        <time>2017-03-30T14:22:29Z</time>
      </trkpt>
      <trkpt lat="43.08085" lon="1.3194">
        <ele>375.53</ele>
        <time>2017-03-30T14:22:30Z</time>
      </trkpt>
      <trkpt lat="43.08087" lon="1.31953">
        <ele>376.49</ele>
        <time>2017-03-30T14:22:39Z</time>
      </trkpt>
      <trkpt lat="43.08087" lon="1.31964">
        <ele>377.45</ele>
        <time>2017-03-30T14:22:48Z</time>
      </trkpt>
      <trkpt lat="43.08084" lon="1.31977">
        <ele>379.38</ele>
        <time>2017-03-30T14:22:57Z</time>
      </trkpt>
      <trkpt lat="43.08082" lon="1.31985">
        <ele>380.34</ele>
        <time>2017-03-30T14:23:04Z</time>
      </trkpt>
      <trkpt lat="43.08081" lon="1.31987">
        <ele>380.34</ele>
        <time>2017-03-30T14:23:05Z</time>
      </trkpt>
      <trkpt lat="43.08078" lon="1.31999">
        <ele>381.3</ele>
        <time>2017-03-30T14:23:14Z</time>
      </trkpt>
      <trkpt lat="43.08077" lon="1.32001">
        <ele>381.3</ele>
        <time>2017-03-30T14:23:15Z</time>
      </trkpt>
      <trkpt lat="43.08076" lon="1.32003">
        <ele>381.3</ele>
        <time>2017-03-30T14:23:16Z</time>
      </trkpt>
      <trkpt lat="43.08074" lon="1.32015">
        <ele>382.74</ele>
        <time>2017-03-30T14:23:25Z</time>
      </trkpt>
      <trkpt lat="43.08073" lon="1.32018">
        <ele>382.74</ele>
        <time>2017-03-30T14:23:26Z</time>
      </trkpt>
      <trkpt lat="43.08073" lon="1.3202">
        <ele>382.74</ele>
        <time>2017-03-30T14:23:27Z</time>
      </trkpt>
      <trkpt lat="43.08072" lon="1.32036">
        <ele>384.18</ele>
        <time>2017-03-30T14:23:37Z</time>
      </trkpt>
      <trkpt lat="43.08071" lon="1.32049">
        <ele>384.66</ele>
        <time>2017-03-30T14:23:46Z</time>
      </trkpt>
      <trkpt lat="43.08071" lon="1.32051">
        <ele>384.66</ele>
        <time>2017-03-30T14:23:48Z</time>
      </trkpt>
      <trkpt lat="43.0807" lon="1.32053">
        <ele>385.15</ele>
        <time>2017-03-30T14:23:49Z</time>
      </trkpt>
      <trkpt lat="43.08071" lon="1.32056">
        <ele>385.15</ele>
        <time>2017-03-30T14:23:50Z</time>
      </trkpt>
      <trkpt lat="43.0807" lon="1.3206">
        <ele>385.63</ele>
        <time>2017-03-30T14:23:54Z</time>
      </trkpt>
      <trkpt lat="43.0807" lon="1.32062">
        <ele>385.63</ele>
        <time>2017-03-30T14:23:55Z</time>
      </trkpt>
      <trkpt lat="43.08069" lon="1.32074">
        <ele>387.55</ele>
        <time>2017-03-30T14:24:04Z</time>
      </trkpt>
      <trkpt lat="43.08067" lon="1.32082">
        <ele>388.51</ele>
        <time>2017-03-30T14:24:11Z</time>
      </trkpt>
      <trkpt lat="43.08066" lon="1.32085">
        <ele>388.51</ele>
        <time>2017-03-30T14:24:12Z</time>
      </trkpt>
      <trkpt lat="43.08065" lon="1.32099">
        <ele>389.47</ele>
        <time>2017-03-30T14:24:22Z</time>
      </trkpt>
      <trkpt lat="43.08064" lon="1.32108">
        <ele>390.43</ele>
        <time>2017-03-30T14:24:31Z</time>
      </trkpt>
      <trkpt lat="43.08064" lon="1.32112">
        <ele>390.43</ele>
        <time>2017-03-30T14:24:34Z</time>
      </trkpt>
      <trkpt lat="43.08066" lon="1.32118">
        <ele>391.39</ele>
        <time>2017-03-30T14:24:48Z</time>
      </trkpt>
      <trkpt lat="43.08064" lon="1.32125">
        <ele>391.39</ele>
        <time>2017-03-30T14:25:38Z</time>
      </trkpt>
      <trkpt lat="43.08064" lon="1.32125">
        <ele>391.39</ele>
        <time>2017-03-30T14:25:39Z</time>
      </trkpt>
      <trkpt lat="43.08061" lon="1.32129">
        <ele>391.39</ele>
        <time>2017-03-30T14:25:43Z</time>
      </trkpt>
      <trkpt lat="43.0806" lon="1.3213">
        <ele>391.39</ele>
        <time>2017-03-30T14:25:44Z</time>
      </trkpt>
      <trkpt lat="43.0806" lon="1.32135">
        <ele>391.39</ele>
        <time>2017-03-30T14:25:49Z</time>
      </trkpt>
      <trkpt lat="43.0806" lon="1.32137">
        <ele>391.39</ele>
        <time>2017-03-30T14:25:50Z</time>
      </trkpt>
      <trkpt lat="43.08057" lon="1.32153">
        <ele>391.87</ele>
        <time>2017-03-30T14:26:01Z</time>
      </trkpt>
      <trkpt lat="43.08055" lon="1.32169">
        <ele>392.36</ele>
        <time>2017-03-30T14:26:11Z</time>
      </trkpt>
      <trkpt lat="43.08054" lon="1.3217">
        <ele>392.36</ele>
        <time>2017-03-30T14:26:12Z</time>
      </trkpt>
      <trkpt lat="43.08054" lon="1.32172">
        <ele>392.36</ele>
        <time>2017-03-30T14:26:13Z</time>
      </trkpt>
      <trkpt lat="43.08052" lon="1.32191">
        <ele>392.84</ele>
        <time>2017-03-30T14:26:27Z</time>
      </trkpt>
      <trkpt lat="43.08052" lon="1.32198">
        <ele>392.84</ele>
        <time>2017-03-30T14:26:33Z</time>
      </trkpt>
      <trkpt lat="43.08051" lon="1.32217">
        <ele>392.84</ele>
        <time>2017-03-30T14:26:46Z</time>
      </trkpt>
      <trkpt lat="43.0805" lon="1.32231">
        <ele>389.95</ele>
        <time>2017-03-30T14:26:55Z</time>
      </trkpt>
      <trkpt lat="43.08048" lon="1.32238">
        <ele>389.95</ele>
        <time>2017-03-30T14:26:58Z</time>
      </trkpt>
      <trkpt lat="43.08047" lon="1.32239">
        <ele>389.95</ele>
        <time>2017-03-30T14:26:59Z</time>
      </trkpt>
      <trkpt lat="43.08031" lon="1.32262">
        <ele>389.95</ele>
        <time>2017-03-30T14:27:16Z</time>
      </trkpt>
      <trkpt lat="43.08024" lon="1.32286">
        <ele>392.36</ele>
        <time>2017-03-30T14:27:32Z</time>
      </trkpt>
      <trkpt lat="43.08021" lon="1.32297">
        <ele>394.28</ele>
        <time>2017-03-30T14:27:41Z</time>
      </trkpt>
      <trkpt lat="43.08009" lon="1.32319">
        <ele>394.28</ele>
        <time>2017-03-30T14:27:58Z</time>
      </trkpt>
      <trkpt lat="43.08006" lon="1.32324">
        <ele>393.32</ele>
        <time>2017-03-30T14:28:02Z</time>
      </trkpt>
      <trkpt lat="43.07994" lon="1.32343">
        <ele>392.84</ele>
        <time>2017-03-30T14:28:17Z</time>
      </trkpt>
      <trkpt lat="43.07981" lon="1.32364">
        <ele>392.84</ele>
        <time>2017-03-30T14:28:33Z</time>
      </trkpt>
      <trkpt lat="43.07968" lon="1.32382">
        <ele>392.36</ele>
        <time>2017-03-30T14:28:48Z</time>
      </trkpt>
      <trkpt lat="43.07957" lon="1.32405">
        <ele>392.36</ele>
        <time>2017-03-30T14:29:04Z</time>
      </trkpt>
      <trkpt lat="43.07944" lon="1.32422">
        <ele>391.87</ele>
        <time>2017-03-30T14:29:19Z</time>
      </trkpt>
      <trkpt lat="43.07925" lon="1.32435">
        <ele>393.8</ele>
        <time>2017-03-30T14:29:36Z</time>
      </trkpt>
      <trkpt lat="43.07912" lon="1.32448">
        <ele>395.24</ele>
        <time>2017-03-30T14:29:51Z</time>
      </trkpt>
      <trkpt lat="43.07902" lon="1.32465">
        <ele>395.72</ele>
        <time>2017-03-30T14:30:05Z</time>
      </trkpt>
      <trkpt lat="43.07892" lon="1.32486">
        <ele>396.68</ele>
        <time>2017-03-30T14:30:22Z</time>
      </trkpt>
      <trkpt lat="43.07884" lon="1.32495">
        <ele>398.12</ele>
        <time>2017-03-30T14:30:36Z</time>
      </trkpt>
      <trkpt lat="43.07883" lon="1.32498">
        <ele>398.6</ele>
        <time>2017-03-30T14:30:39Z</time>
      </trkpt>
      <trkpt lat="43.07873" lon="1.32517">
        <ele>399.57</ele>
        <time>2017-03-30T14:30:54Z</time>
      </trkpt>
      <trkpt lat="43.07869" lon="1.32524">
        <ele>400.05</ele>
        <time>2017-03-30T14:31:00Z</time>
      </trkpt>
      <trkpt lat="43.07869" lon="1.32525">
        <ele>400.53</ele>
        <time>2017-03-30T14:31:01Z</time>
      </trkpt>
      <trkpt lat="43.07868" lon="1.32527">
        <ele>400.53</ele>
        <time>2017-03-30T14:31:02Z</time>
      </trkpt>
      <trkpt lat="43.07867" lon="1.3253">
        <ele>401.01</ele>
        <time>2017-03-30T14:31:04Z</time>
      </trkpt>
      <trkpt lat="43.07862" lon="1.3254">
        <ele>400.53</ele>
        <time>2017-03-30T14:31:12Z</time>
      </trkpt>
      <trkpt lat="43.07856" lon="1.32561">
        <ele>401.01</ele>
        <time>2017-03-30T14:31:25Z</time>
      </trkpt>
      <trkpt lat="43.07852" lon="1.32572">
        <ele>401.49</ele>
        <time>2017-03-30T14:31:33Z</time>
      </trkpt>
      <trkpt lat="43.07842" lon="1.32595">
        <ele>402.93</ele>
        <time>2017-03-30T14:31:50Z</time>
      </trkpt>
      <trkpt lat="43.0784" lon="1.326">
        <ele>404.37</ele>
        <time>2017-03-30T14:31:56Z</time>
      </trkpt>
      <trkpt lat="43.07838" lon="1.32602">
        <ele>402.93</ele>
        <time>2017-03-30T14:32:14Z</time>
      </trkpt>
      <trkpt lat="43.07831" lon="1.3263">
        <ele>404.37</ele>
        <time>2017-03-30T14:32:31Z</time>
      </trkpt>
      <trkpt lat="43.07826" lon="1.32652">
        <ele>406.77</ele>
        <time>2017-03-30T14:32:46Z</time>
      </trkpt>
      <trkpt lat="43.07824" lon="1.32666">
        <ele>407.74</ele>
        <time>2017-03-30T14:32:56Z</time>
      </trkpt>
      <trkpt lat="43.07825" lon="1.32668">
        <ele>407.74</ele>
        <time>2017-03-30T14:32:57Z</time>
      </trkpt>
      <trkpt lat="43.07825" lon="1.32669">
        <ele>407.74</ele>
        <time>2017-03-30T14:32:58Z</time>
      </trkpt>
      <trkpt lat="43.07824" lon="1.32671">
        <ele>407.74</ele>
        <time>2017-03-30T14:32:59Z</time>
      </trkpt>
      <trkpt lat="43.07824" lon="1.32672">
        <ele>408.22</ele>
        <time>2017-03-30T14:33:00Z</time>
      </trkpt>
      <trkpt lat="43.07823" lon="1.32674">
        <ele>408.22</ele>
        <time>2017-03-30T14:33:01Z</time>
      </trkpt>
      <trkpt lat="43.07823" lon="1.32695">
        <ele>410.14</ele>
        <time>2017-03-30T14:33:16Z</time>
      </trkpt>
      <trkpt lat="43.07824" lon="1.32704">
        <ele>411.58</ele>
        <time>2017-03-30T14:33:30Z</time>
      </trkpt>
      <trkpt lat="43.07828" lon="1.32728">
        <ele>412.06</ele>
        <time>2017-03-30T14:33:45Z</time>
      </trkpt>
      <trkpt lat="43.07829" lon="1.3273">
        <ele>412.54</ele>
        <time>2017-03-30T14:33:47Z</time>
      </trkpt>
      <trkpt lat="43.07828" lon="1.32731">
        <ele>413.98</ele>
        <time>2017-03-30T14:34:02Z</time>
      </trkpt>
      <trkpt lat="43.07827" lon="1.32738">
        <ele>412.54</ele>
        <time>2017-03-30T14:34:22Z</time>
      </trkpt>
      <trkpt lat="43.07828" lon="1.32742">
        <ele>412.54</ele>
        <time>2017-03-30T14:34:25Z</time>
      </trkpt>
      <trkpt lat="43.07828" lon="1.32745">
        <ele>412.54</ele>
        <time>2017-03-30T14:34:27Z</time>
      </trkpt>
      <trkpt lat="43.07829" lon="1.32764">
        <ele>415.43</ele>
        <time>2017-03-30T14:34:39Z</time>
      </trkpt>
      <trkpt lat="43.0783" lon="1.3278">
        <ele>416.87</ele>
        <time>2017-03-30T14:34:53Z</time>
      </trkpt>
      <trkpt lat="43.0783" lon="1.32793">
        <ele>417.83</ele>
        <time>2017-03-30T14:40:01Z</time>
      </trkpt>
      <trkpt lat="43.07831" lon="1.32799">
        <ele>417.83</ele>
        <time>2017-03-30T14:40:06Z</time>
      </trkpt>
      <trkpt lat="43.07839" lon="1.32817">
        <ele>419.75</ele>
        <time>2017-03-30T14:40:20Z</time>
      </trkpt>
      <trkpt lat="43.07846" lon="1.32836">
        <ele>421.19</ele>
        <time>2017-03-30T14:40:56Z</time>
      </trkpt>
      <trkpt lat="43.0785" lon="1.32852">
        <ele>422.16</ele>
        <time>2017-03-30T14:41:08Z</time>
      </trkpt>
      <trkpt lat="43.0785" lon="1.32854">
        <ele>422.16</ele>
        <time>2017-03-30T14:41:09Z</time>
      </trkpt>
      <trkpt lat="43.07854" lon="1.32865">
        <ele>423.12</ele>
        <time>2017-03-30T14:41:17Z</time>
      </trkpt>
      <trkpt lat="43.07854" lon="1.32866">
        <ele>423.12</ele>
        <time>2017-03-30T14:41:18Z</time>
      </trkpt>
      <trkpt lat="43.07855" lon="1.32868">
        <ele>423.12</ele>
        <time>2017-03-30T14:41:19Z</time>
      </trkpt>
      <trkpt lat="43.07858" lon="1.32877">
        <ele>424.56</ele>
        <time>2017-03-30T14:41:26Z</time>
      </trkpt>
      <trkpt lat="43.07863" lon="1.32901">
        <ele>425.52</ele>
        <time>2017-03-30T14:41:43Z</time>
      </trkpt>
      <trkpt lat="43.07866" lon="1.3291">
        <ele>426.48</ele>
        <time>2017-03-30T14:41:54Z</time>
      </trkpt>
      <trkpt lat="43.07874" lon="1.32934">
        <ele>427.44</ele>
        <time>2017-03-30T14:42:11Z</time>
      </trkpt>
      <trkpt lat="43.07881" lon="1.32952">
        <ele>429.37</ele>
        <time>2017-03-30T14:42:26Z</time>
      </trkpt>
      <trkpt lat="43.07889" lon="1.32968">
        <ele>430.33</ele>
        <time>2017-03-30T14:42:40Z</time>
      </trkpt>
      <trkpt lat="43.07892" lon="1.3297">
        <ele>430.81</ele>
        <time>2017-03-30T14:42:57Z</time>
      </trkpt>
      <trkpt lat="43.07898" lon="1.32982">
        <ele>430.81</ele>
        <time>2017-03-30T14:43:15Z</time>
      </trkpt>
      <trkpt lat="43.07898" lon="1.32988">
        <ele>431.77</ele>
        <time>2017-03-30T14:43:28Z</time>
      </trkpt>
      <trkpt lat="43.07895" lon="1.32995">
        <ele>432.25</ele>
        <time>2017-03-30T14:43:45Z</time>
      </trkpt>
      <trkpt lat="43.07894" lon="1.32998">
        <ele>430.81</ele>
        <time>2017-03-30T14:43:47Z</time>
      </trkpt>
      <trkpt lat="43.07884" lon="1.33019">
        <ele>429.37</ele>
        <time>2017-03-30T14:44:03Z</time>
      </trkpt>
      <trkpt lat="43.07882" lon="1.33023">
        <ele>429.37</ele>
        <time>2017-03-30T14:44:06Z</time>
      </trkpt>
      <trkpt lat="43.07876" lon="1.33045">
        <ele>428.89</ele>
        <time>2017-03-30T14:44:20Z</time>
      </trkpt>
      <trkpt lat="43.07873" lon="1.33048">
        <ele>428.89</ele>
        <time>2017-03-30T14:44:23Z</time>
      </trkpt>
      <trkpt lat="43.07864" lon="1.33044">
        <ele>427.44</ele>
        <time>2017-03-30T14:44:37Z</time>
      </trkpt>
      <trkpt lat="43.07864" lon="1.33044">
        <ele>427.44</ele>
        <time>2017-03-30T14:44:55Z</time>
      </trkpt>
      <trkpt lat="43.07859" lon="1.33056">
        <ele>427.44</ele>
        <time>2017-03-30T14:45:27Z</time>
      </trkpt>
      <trkpt lat="43.07861" lon="1.33073">
        <ele>430.81</ele>
        <time>2017-03-30T14:45:41Z</time>
      </trkpt>
      <trkpt lat="43.07859" lon="1.33076">
        <ele>430.81</ele>
        <time>2017-03-30T14:45:43Z</time>
      </trkpt>
      <trkpt lat="43.07857" lon="1.33082">
        <ele>431.29</ele>
        <time>2017-03-30T14:46:00Z</time>
      </trkpt>
      <trkpt lat="43.07854" lon="1.33085">
        <ele>431.77</ele>
        <time>2017-03-30T14:46:08Z</time>
      </trkpt>
      <trkpt lat="43.07849" lon="1.33091">
        <ele>431.77</ele>
        <time>2017-03-30T14:46:22Z</time>
      </trkpt>
      <trkpt lat="43.07846" lon="1.33101">
        <ele>432.73</ele>
        <time>2017-03-30T14:46:38Z</time>
      </trkpt>
      <trkpt lat="43.07845" lon="1.33105">
        <ele>432.73</ele>
        <time>2017-03-30T14:46:41Z</time>
      </trkpt>
      <trkpt lat="43.07843" lon="1.33107">
        <ele>432.73</ele>
        <time>2017-03-30T14:46:43Z</time>
      </trkpt>
      <trkpt lat="43.07838" lon="1.33117">
        <ele>434.17</ele>
        <time>2017-03-30T14:46:50Z</time>
      </trkpt>
      <trkpt lat="43.07835" lon="1.33123">
        <ele>434.17</ele>
        <time>2017-03-30T14:46:55Z</time>
      </trkpt>
      <trkpt lat="43.07822" lon="1.33143">
        <ele>435.13</ele>
        <time>2017-03-30T14:47:13Z</time>
      </trkpt>
      <trkpt lat="43.0782" lon="1.33147">
        <ele>435.61</ele>
        <time>2017-03-30T14:47:16Z</time>
      </trkpt>
      <trkpt lat="43.07813" lon="1.3316">
        <ele>435.61</ele>
        <time>2017-03-30T14:47:27Z</time>
      </trkpt>
      <trkpt lat="43.07809" lon="1.33171">
        <ele>436.58</ele>
        <time>2017-03-30T14:47:35Z</time>
      </trkpt>
      <trkpt lat="43.07808" lon="1.33175">
        <ele>437.06</ele>
        <time>2017-03-30T14:47:38Z</time>
      </trkpt>
      <trkpt lat="43.07807" lon="1.33179">
        <ele>437.06</ele>
        <time>2017-03-30T14:47:41Z</time>
      </trkpt>
      <trkpt lat="43.07801" lon="1.33192">
        <ele>438.02</ele>
        <time>2017-03-30T14:47:51Z</time>
      </trkpt>
      <trkpt lat="43.07797" lon="1.33208">
        <ele>438.98</ele>
        <time>2017-03-30T14:48:01Z</time>
      </trkpt>
      <trkpt lat="43.07796" lon="1.33216">
        <ele>438.98</ele>
        <time>2017-03-30T14:48:06Z</time>
      </trkpt>
      <trkpt lat="43.07794" lon="1.33221">
        <ele>438.5</ele>
        <time>2017-03-30T14:48:10Z</time>
      </trkpt>
      <trkpt lat="43.07792" lon="1.33223">
        <ele>439.46</ele>
        <time>2017-03-30T14:48:12Z</time>
      </trkpt>
      <trkpt lat="43.07783" lon="1.33233">
        <ele>439.46</ele>
        <time>2017-03-30T14:48:23Z</time>
      </trkpt>
      <trkpt lat="43.07771" lon="1.33247">
        <ele>439.46</ele>
        <time>2017-03-30T14:48:35Z</time>
      </trkpt>
      <trkpt lat="43.07758" lon="1.33267">
        <ele>439.46</ele>
        <time>2017-03-30T14:48:51Z</time>
      </trkpt>
      <trkpt lat="43.07747" lon="1.33283">
        <ele>441.38</ele>
        <time>2017-03-30T14:49:07Z</time>
      </trkpt>
      <trkpt lat="43.07744" lon="1.33286">
        <ele>441.38</ele>
        <time>2017-03-30T14:49:20Z</time>
      </trkpt>
      <trkpt lat="43.07743" lon="1.33288">
        <ele>441.38</ele>
        <time>2017-03-30T14:49:22Z</time>
      </trkpt>
      <trkpt lat="43.07742" lon="1.3329">
        <ele>441.38</ele>
        <time>2017-03-30T14:49:23Z</time>
      </trkpt>
      <trkpt lat="43.07741" lon="1.33291">
        <ele>441.38</ele>
        <time>2017-03-30T14:49:24Z</time>
      </trkpt>
      <trkpt lat="43.07741" lon="1.33292">
        <ele>439.94</ele>
        <time>2017-03-30T14:49:25Z</time>
      </trkpt>
      <trkpt lat="43.0774" lon="1.33294">
        <ele>439.94</ele>
        <time>2017-03-30T14:49:26Z</time>
      </trkpt>
      <trkpt lat="43.07739" lon="1.33295">
        <ele>439.94</ele>
        <time>2017-03-30T14:49:27Z</time>
      </trkpt>
      <trkpt lat="43.07728" lon="1.33323">
        <ele>442.34</ele>
        <time>2017-03-30T14:49:45Z</time>
      </trkpt>
      <trkpt lat="43.0772" lon="1.33351">
        <ele>442.82</ele>
        <time>2017-03-30T14:50:04Z</time>
      </trkpt>
      <trkpt lat="43.07717" lon="1.33361">
        <ele>442.82</ele>
        <time>2017-03-30T14:50:11Z</time>
      </trkpt>
      <trkpt lat="43.07718" lon="1.33363">
        <ele>442.82</ele>
        <time>2017-03-30T14:50:13Z</time>
      </trkpt>
      <trkpt lat="43.07718" lon="1.33364">
        <ele>442.82</ele>
        <time>2017-03-30T14:50:14Z</time>
      </trkpt>
      <trkpt lat="43.0772" lon="1.33365">
        <ele>441.86</ele>
        <time>2017-03-30T14:50:16Z</time>
      </trkpt>
      <trkpt lat="43.07735" lon="1.33369">
        <ele>443.31</ele>
        <time>2017-03-30T14:50:31Z</time>
      </trkpt>
      <trkpt lat="43.07746" lon="1.33375">
        <ele>444.27</ele>
        <time>2017-03-30T14:50:43Z</time>
      </trkpt>
      <trkpt lat="43.07748" lon="1.33376">
        <ele>444.75</ele>
        <time>2017-03-30T14:50:45Z</time>
      </trkpt>
      <trkpt lat="43.07759" lon="1.33379">
        <ele>445.23</ele>
        <time>2017-03-30T14:50:53Z</time>
      </trkpt>
      <trkpt lat="43.0776" lon="1.3338">
        <ele>445.71</ele>
        <time>2017-03-30T14:50:54Z</time>
      </trkpt>
      <trkpt lat="43.07769" lon="1.33385">
        <ele>446.19</ele>
        <time>2017-03-30T14:51:07Z</time>
      </trkpt>
      <trkpt lat="43.07775" lon="1.33391">
        <ele>446.19</ele>
        <time>2017-03-30T14:51:21Z</time>
      </trkpt>
      <trkpt lat="43.07784" lon="1.334">
        <ele>446.19</ele>
        <time>2017-03-30T14:52:00Z</time>
      </trkpt>
      <trkpt lat="43.07799" lon="1.33416">
        <ele>444.27</ele>
        <time>2017-03-30T14:52:16Z</time>
      </trkpt>
      <trkpt lat="43.07806" lon="1.33441">
        <ele>443.31</ele>
        <time>2017-03-30T14:52:32Z</time>
      </trkpt>
      <trkpt lat="43.07824" lon="1.33455">
        <ele>444.75</ele>
        <time>2017-03-30T14:52:50Z</time>
      </trkpt>
      <trkpt lat="43.07837" lon="1.33473">
        <ele>445.23</ele>
        <time>2017-03-30T14:53:06Z</time>
      </trkpt>
      <trkpt lat="43.07852" lon="1.33478">
        <ele>446.67</ele>
        <time>2017-03-30T14:53:20Z</time>
      </trkpt>
      <trkpt lat="43.07869" lon="1.33478">
        <ele>447.15</ele>
        <time>2017-03-30T14:53:34Z</time>
      </trkpt>
      <trkpt lat="43.07869" lon="1.33479">
        <ele>447.15</ele>
        <time>2017-03-30T14:53:35Z</time>
      </trkpt>
      <trkpt lat="43.07869" lon="1.33481">
        <ele>447.15</ele>
        <time>2017-03-30T14:53:36Z</time>
      </trkpt>
      <trkpt lat="43.07869" lon="1.33488">
        <ele>447.15</ele>
        <time>2017-03-30T14:53:40Z</time>
      </trkpt>
      <trkpt lat="43.07869" lon="1.3349">
        <ele>447.63</ele>
        <time>2017-03-30T14:53:41Z</time>
      </trkpt>
      <trkpt lat="43.07866" lon="1.33516">
        <ele>449.07</ele>
        <time>2017-03-30T14:53:57Z</time>
      </trkpt>
      <trkpt lat="43.07865" lon="1.33529">
        <ele>451.48</ele>
        <time>2017-03-30T14:54:08Z</time>
      </trkpt>
      <trkpt lat="43.07866" lon="1.33536">
        <ele>451.48</ele>
        <time>2017-03-30T14:54:13Z</time>
      </trkpt>
      <trkpt lat="43.07866" lon="1.33537">
        <ele>451.48</ele>
        <time>2017-03-30T14:54:14Z</time>
      </trkpt>
      <trkpt lat="43.07866" lon="1.33559">
        <ele>450.03</ele>
        <time>2017-03-30T14:54:26Z</time>
      </trkpt>
      <trkpt lat="43.07865" lon="1.33586">
        <ele>449.07</ele>
        <time>2017-03-30T14:54:43Z</time>
      </trkpt>
      <trkpt lat="43.07866" lon="1.33615">
        <ele>448.59</ele>
        <time>2017-03-30T14:55:00Z</time>
      </trkpt>
      <trkpt lat="43.07866" lon="1.33624">
        <ele>449.55</ele>
        <time>2017-03-30T14:55:05Z</time>
      </trkpt>
      <trkpt lat="43.07866" lon="1.33625">
        <ele>449.55</ele>
        <time>2017-03-30T14:55:06Z</time>
      </trkpt>
      <trkpt lat="43.07867" lon="1.33627">
        <ele>449.55</ele>
        <time>2017-03-30T14:55:07Z</time>
      </trkpt>
      <trkpt lat="43.07867" lon="1.33632">
        <ele>450.03</ele>
        <time>2017-03-30T14:55:10Z</time>
      </trkpt>
      <trkpt lat="43.07867" lon="1.33633">
        <ele>450.03</ele>
        <time>2017-03-30T14:55:11Z</time>
      </trkpt>
      <trkpt lat="43.07867" lon="1.33635">
        <ele>450.03</ele>
        <time>2017-03-30T14:55:12Z</time>
      </trkpt>
      <trkpt lat="43.07867" lon="1.33637">
        <ele>450.52</ele>
        <time>2017-03-30T14:55:13Z</time>
      </trkpt>
      <trkpt lat="43.0787" lon="1.33659">
        <ele>452.44</ele>
        <time>2017-03-30T14:55:27Z</time>
      </trkpt>
      <trkpt lat="43.07873" lon="1.33682">
        <ele>454.36</ele>
        <time>2017-03-30T14:55:44Z</time>
      </trkpt>
      <trkpt lat="43.07878" lon="1.33701">
        <ele>456.28</ele>
        <time>2017-03-30T14:55:59Z</time>
      </trkpt>
      <trkpt lat="43.07877" lon="1.33723">
        <ele>458.69</ele>
        <time>2017-03-30T14:56:15Z</time>
      </trkpt>
      <trkpt lat="43.07874" lon="1.33748">
        <ele>461.09</ele>
        <time>2017-03-30T14:56:31Z</time>
      </trkpt>
      <trkpt lat="43.07877" lon="1.33771">
        <ele>463.01</ele>
        <time>2017-03-30T14:56:48Z</time>
      </trkpt>
      <trkpt lat="43.07881" lon="1.33792">
        <ele>463.97</ele>
        <time>2017-03-30T14:57:03Z</time>
      </trkpt>
      <trkpt lat="43.07886" lon="1.33817">
        <ele>465.42</ele>
        <time>2017-03-30T14:57:19Z</time>
      </trkpt>
      <trkpt lat="43.07888" lon="1.33843">
        <ele>467.34</ele>
        <time>2017-03-30T14:57:36Z</time>
      </trkpt>
      <trkpt lat="43.07895" lon="1.33872">
        <ele>468.3</ele>
        <time>2017-03-30T14:57:52Z</time>
      </trkpt>
      <trkpt lat="43.07899" lon="1.33898">
        <ele>469.74</ele>
        <time>2017-03-30T14:58:07Z</time>
      </trkpt>
      <trkpt lat="43.07901" lon="1.33925">
        <ele>471.18</ele>
        <time>2017-03-30T14:58:24Z</time>
      </trkpt>
      <trkpt lat="43.07898" lon="1.33955">
        <ele>471.66</ele>
        <time>2017-03-30T14:58:41Z</time>
      </trkpt>
      <trkpt lat="43.0789" lon="1.33983">
        <ele>472.63</ele>
        <time>2017-03-30T14:58:58Z</time>
      </trkpt>
      <trkpt lat="43.07888" lon="1.3399">
        <ele>470.7</ele>
        <time>2017-03-30T14:59:02Z</time>
      </trkpt>
      <trkpt lat="43.07887" lon="1.33997">
        <ele>471.66</ele>
        <time>2017-03-30T14:59:06Z</time>
      </trkpt>
      <trkpt lat="43.07879" lon="1.34023">
        <ele>472.14</ele>
        <time>2017-03-30T14:59:21Z</time>
      </trkpt>
      <trkpt lat="43.07873" lon="1.3404">
        <ele>473.59</ele>
        <time>2017-03-30T14:59:31Z</time>
      </trkpt>
      <trkpt lat="43.07868" lon="1.34049">
        <ele>473.59</ele>
        <time>2017-03-30T14:59:47Z</time>
      </trkpt>
      <trkpt lat="43.07864" lon="1.34068">
        <ele>472.14</ele>
        <time>2017-03-30T14:59:57Z</time>
      </trkpt>
      <trkpt lat="43.07855" lon="1.34093">
        <ele>472.14</ele>
        <time>2017-03-30T15:00:13Z</time>
      </trkpt>
      <trkpt lat="43.07859" lon="1.34113">
        <ele>471.66</ele>
        <time>2017-03-30T15:00:27Z</time>
      </trkpt>
      <trkpt lat="43.07878" lon="1.34119">
        <ele>471.18</ele>
        <time>2017-03-30T15:00:44Z</time>
      </trkpt>
      <trkpt lat="43.07897" lon="1.34135">
        <ele>470.7</ele>
        <time>2017-03-30T15:01:02Z</time>
      </trkpt>
      <trkpt lat="43.07907" lon="1.34155">
        <ele>470.22</ele>
        <time>2017-03-30T15:01:16Z</time>
      </trkpt>
      <trkpt lat="43.07919" lon="1.34172">
        <ele>470.22</ele>
        <time>2017-03-30T15:01:30Z</time>
      </trkpt>
      <trkpt lat="43.07927" lon="1.34195">
        <ele>470.22</ele>
        <time>2017-03-30T15:01:46Z</time>
      </trkpt>
      <trkpt lat="43.07935" lon="1.34215">
        <ele>470.22</ele>
        <time>2017-03-30T15:01:59Z</time>
      </trkpt>
      <trkpt lat="43.07943" lon="1.34236">
        <ele>470.22</ele>
        <time>2017-03-30T15:02:12Z</time>
      </trkpt>
      <trkpt lat="43.0795" lon="1.34257">
        <ele>470.22</ele>
        <time>2017-03-30T15:02:25Z</time>
      </trkpt>
      <trkpt lat="43.07959" lon="1.34283">
        <ele>471.18</ele>
        <time>2017-03-30T15:02:41Z</time>
      </trkpt>
      <trkpt lat="43.07967" lon="1.34295">
        <ele>471.18</ele>
        <time>2017-03-30T15:02:50Z</time>
      </trkpt>
      <trkpt lat="43.07967" lon="1.34297">
        <ele>471.18</ele>
        <time>2017-03-30T15:02:51Z</time>
      </trkpt>
      <trkpt lat="43.07967" lon="1.34299">
        <ele>471.18</ele>
        <time>2017-03-30T15:02:52Z</time>
      </trkpt>
      <trkpt lat="43.07976" lon="1.34322">
        <ele>471.18</ele>
        <time>2017-03-30T15:03:07Z</time>
      </trkpt>
      <trkpt lat="43.07984" lon="1.34339">
        <ele>469.74</ele>
        <time>2017-03-30T15:03:18Z</time>
      </trkpt>
      <trkpt lat="43.07995" lon="1.3436">
        <ele>469.26</ele>
        <time>2017-03-30T15:03:33Z</time>
      </trkpt>
      <trkpt lat="43.08007" lon="1.3438">
        <ele>469.26</ele>
        <time>2017-03-30T15:03:47Z</time>
      </trkpt>
      <trkpt lat="43.08021" lon="1.34397">
        <ele>469.26</ele>
        <time>2017-03-30T15:04:02Z</time>
      </trkpt>
      <trkpt lat="43.08033" lon="1.34409">
        <ele>469.26</ele>
        <time>2017-03-30T15:04:16Z</time>
      </trkpt>
      <trkpt lat="43.08034" lon="1.34411">
        <ele>469.26</ele>
        <time>2017-03-30T15:04:17Z</time>
      </trkpt>
      <trkpt lat="43.08035" lon="1.34412">
        <ele>469.26</ele>
        <time>2017-03-30T15:04:18Z</time>
      </trkpt>
      <trkpt lat="43.08036" lon="1.34414">
        <ele>469.26</ele>
        <time>2017-03-30T15:04:19Z</time>
      </trkpt>
      <trkpt lat="43.08042" lon="1.3444">
        <ele>466.38</ele>
        <time>2017-03-30T15:04:35Z</time>
      </trkpt>
      <trkpt lat="43.08036" lon="1.34459">
        <ele>465.42</ele>
        <time>2017-03-30T15:04:47Z</time>
      </trkpt>
      <trkpt lat="43.08035" lon="1.34461">
        <ele>465.42</ele>
        <time>2017-03-30T15:04:48Z</time>
      </trkpt>
      <trkpt lat="43.0803" lon="1.3449">
        <ele>463.97</ele>
        <time>2017-03-30T15:05:04Z</time>
      </trkpt>
      <trkpt lat="43.08026" lon="1.34515">
        <ele>461.09</ele>
        <time>2017-03-30T15:05:20Z</time>
      </trkpt>
      <trkpt lat="43.08025" lon="1.34534">
        <ele>458.69</ele>
        <time>2017-03-30T15:05:31Z</time>
      </trkpt>
      <trkpt lat="43.08025" lon="1.34538">
        <ele>458.21</ele>
        <time>2017-03-30T15:05:34Z</time>
      </trkpt>
      <trkpt lat="43.08023" lon="1.34551">
        <ele>457.24</ele>
        <time>2017-03-30T15:05:41Z</time>
      </trkpt>
      <trkpt lat="43.0802" lon="1.34578">
        <ele>454.36</ele>
        <time>2017-03-30T15:05:56Z</time>
      </trkpt>
      <trkpt lat="43.08015" lon="1.34605">
        <ele>451</ele>
        <time>2017-03-30T15:06:13Z</time>
      </trkpt>
      <trkpt lat="43.08015" lon="1.3463">
        <ele>449.07</ele>
        <time>2017-03-30T15:06:28Z</time>
      </trkpt>
      <trkpt lat="43.08024" lon="1.34654">
        <ele>447.15</ele>
        <time>2017-03-30T15:06:44Z</time>
      </trkpt>
      <trkpt lat="43.08025" lon="1.34661">
        <ele>447.15</ele>
        <time>2017-03-30T15:06:48Z</time>
      </trkpt>
      <trkpt lat="43.08024" lon="1.34687">
        <ele>445.23</ele>
        <time>2017-03-30T15:07:02Z</time>
      </trkpt>
      <trkpt lat="43.08021" lon="1.34717">
        <ele>442.82</ele>
        <time>2017-03-30T15:07:18Z</time>
      </trkpt>
      <trkpt lat="43.08022" lon="1.34752">
        <ele>440.9</ele>
        <time>2017-03-30T15:07:38Z</time>
      </trkpt>
      <trkpt lat="43.08022" lon="1.34753">
        <ele>440.9</ele>
        <time>2017-03-30T15:07:39Z</time>
      </trkpt>
      <trkpt lat="43.08021" lon="1.34758">
        <ele>440.9</ele>
        <time>2017-03-30T15:07:42Z</time>
      </trkpt>
      <trkpt lat="43.08012" lon="1.34768">
        <ele>439.94</ele>
        <time>2017-03-30T15:07:56Z</time>
      </trkpt>
      <trkpt lat="43.08005" lon="1.34769">
        <ele>439.94</ele>
        <time>2017-03-30T15:08:09Z</time>
      </trkpt>
      <trkpt lat="43.08002" lon="1.34775">
        <ele>439.46</ele>
        <time>2017-03-30T15:08:24Z</time>
      </trkpt>
      <trkpt lat="43.07998" lon="1.34767">
        <ele>438.98</ele>
        <time>2017-03-30T15:08:39Z</time>
      </trkpt>
      <trkpt lat="43.07998" lon="1.34764">
        <ele>438.98</ele>
        <time>2017-03-30T15:08:57Z</time>
      </trkpt>
      <trkpt lat="43.08002" lon="1.34761">
        <ele>438.98</ele>
        <time>2017-03-30T15:09:11Z</time>
      </trkpt>
      <trkpt lat="43.08005" lon="1.34762">
        <ele>438.98</ele>
        <time>2017-03-30T15:09:23Z</time>
      </trkpt>
      <trkpt lat="43.08006" lon="1.34763">
        <ele>438.98</ele>
        <time>2017-03-30T15:09:50Z</time>
      </trkpt>
      <trkpt lat="43.08011" lon="1.34766">
        <ele>438.98</ele>
        <time>2017-03-30T15:10:08Z</time>
      </trkpt>
      <trkpt lat="43.08013" lon="1.34765">
        <ele>440.42</ele>
        <time>2017-03-30T15:10:10Z</time>
      </trkpt>
      <trkpt lat="43.08017" lon="1.34765">
        <ele>440.9</ele>
        <time>2017-03-30T15:10:13Z</time>
      </trkpt>
      <trkpt lat="43.08026" lon="1.34775">
        <ele>440.9</ele>
        <time>2017-03-30T15:10:27Z</time>
      </trkpt>
      <trkpt lat="43.08022" lon="1.34777">
        <ele>440.9</ele>
        <time>2017-03-30T15:10:37Z</time>
      </trkpt>
      <trkpt lat="43.08017" lon="1.3478">
        <ele>439.46</ele>
        <time>2017-03-30T15:10:41Z</time>
      </trkpt>
      <trkpt lat="43.08" lon="1.34789">
        <ele>436.1</ele>
        <time>2017-03-30T15:10:55Z</time>
      </trkpt>
      <trkpt lat="43.07996" lon="1.34794">
        <ele>435.13</ele>
        <time>2017-03-30T15:11:00Z</time>
      </trkpt>
      <trkpt lat="43.07993" lon="1.34821">
        <ele>432.25</ele>
        <time>2017-03-30T15:11:17Z</time>
      </trkpt>
      <trkpt lat="43.07992" lon="1.34861">
        <ele>431.77</ele>
        <time>2017-03-30T15:11:38Z</time>
      </trkpt>
      <trkpt lat="43.07989" lon="1.34889">
        <ele>431.29</ele>
        <time>2017-03-30T15:11:54Z</time>
      </trkpt>
      <trkpt lat="43.0799" lon="1.3491">
        <ele>430.33</ele>
        <time>2017-03-30T15:12:05Z</time>
      </trkpt>
      <trkpt lat="43.0799" lon="1.34911">
        <ele>430.33</ele>
        <time>2017-03-30T15:12:06Z</time>
      </trkpt>
      <trkpt lat="43.07991" lon="1.34939">
        <ele>430.33</ele>
        <time>2017-03-30T15:12:22Z</time>
      </trkpt>
      <trkpt lat="43.07993" lon="1.34951">
        <ele>430.33</ele>
        <time>2017-03-30T15:12:37Z</time>
      </trkpt>
      <trkpt lat="43.07993" lon="1.3496">
        <ele>430.33</ele>
        <time>2017-03-30T15:13:05Z</time>
      </trkpt>
      <trkpt lat="43.07994" lon="1.34967">
        <ele>430.33</ele>
        <time>2017-03-30T15:13:21Z</time>
      </trkpt>
      <trkpt lat="43.07996" lon="1.34973">
        <ele>430.33</ele>
        <time>2017-03-30T15:13:56Z</time>
      </trkpt>
      <trkpt lat="43.08002" lon="1.35001">
        <ele>431.29</ele>
        <time>2017-03-30T15:14:33Z</time>
      </trkpt>
      <trkpt lat="43.08007" lon="1.3503">
        <ele>429.85</ele>
        <time>2017-03-30T15:14:50Z</time>
      </trkpt>
      <trkpt lat="43.08008" lon="1.35054">
        <ele>428.89</ele>
        <time>2017-03-30T15:15:05Z</time>
      </trkpt>
      <trkpt lat="43.08015" lon="1.35084">
        <ele>427.92</ele>
        <time>2017-03-30T15:15:23Z</time>
      </trkpt>
      <trkpt lat="43.0802" lon="1.35085">
        <ele>426.96</ele>
        <time>2017-03-30T15:15:37Z</time>
      </trkpt>
      <trkpt lat="43.08021" lon="1.35083">
        <ele>426.48</ele>
        <time>2017-03-30T15:15:56Z</time>
      </trkpt>
    </trkseg>
  </trk>
</gpx>